AV17 / N786AV 7700 Squawk Report (21st of September, 2019)

Aircraft B788 Reg No. N786AV Age 3 years old
Model 787 Jet engines 2 First flight 16-11-15
Registered 11-12-15 Rollout N/A Delivered 11-12-15
Construction No. 37508 Line No. 0367 Series 8
ADSHEX AAA6E4 Airline name Avianca Owner N/A
Airfield based Bogota-Eldorado~Distrito Capital~HK First tracked 2017-07-13 09:38:00
Time Lat Lon Altitude Heading Speed Vertical Rate
2019-09-22 04:16:46 GMT 6.751556 -75.406296 26,000 201 434 -4736
2019-09-22 04:16:35 GMT 6.772110 -75.398567 26,650 201 443 -3456
2019-09-22 04:16:24 GMT 6.792847 -75.390793 27,275 201 455 -4480
2019-09-22 04:16:17 GMT 6.808731 -75.384789 27,875 201 460 -5120
2019-09-22 04:16:14 GMT 6.814130 -75.382690 28,075 201 461 -5312
2019-09-22 04:16:07 GMT 6.830383 -75.376549 28,775 201 463 -5760
2019-09-22 04:15:56 GMT 6.850814 -75.368767 29,575 201 471 -2816
2019-09-22 04:15:46 GMT 6.873276 -75.360252 29,950 201 476 -2112
2019-09-22 04:15:34 GMT 6.895457 -75.351768 30,300 201 479 -2368
2019-09-22 04:15:24 GMT 6.916731 -75.343765 30,675 201 480 -2432
2019-09-22 04:15:18 GMT 6.928207 -75.339394 30,875 201 481 -1856
2019-09-22 04:15:14 GMT 6.940384 -75.334785 30,975 201 483 -704
2019-09-22 04:15:02 GMT 6.961701 -75.326714 30,975 201 489 64
2019-09-22 04:14:53 GMT 6.985016 -75.317841 30,975 201 497 64
2019-09-22 04:14:48 GMT 6.993256 -75.314728 30,975 201 499 0
2019-09-22 04:14:41 GMT 7.008865 -75.308762 30,975 201 500 64
2019-09-22 04:14:38 GMT 7.014724 -75.306541 30,975 201 500 64
2019-09-22 04:13:54 GMT 7.111320 -75.269753 31,575 201 514 -2240
2019-09-22 04:13:46 GMT 7.129149 -75.262833 31,850 202 514 -2560
2019-09-22 04:13:37 GMT 7.149033 -75.255135 32,275 202 516 -3328
2019-09-22 04:13:28 GMT 7.169174 -75.247414 32,775 201 514 -3648
2019-09-22 04:13:18 GMT 7.192181 -75.238541 33,375 202 514 -3584
2019-09-22 04:13:07 GMT 7.217133 -75.228928 34,000 202 513 -3584
2019-09-22 04:12:56 GMT 7.241364 -75.219666 34,600 201 512 -3520
2019-09-22 04:12:44 GMT 7.268294 -75.209373 35,275 202 512 -3520
2019-09-22 04:12:35 GMT 7.286915 -75.202225 35,750 201 510 -3520
2019-09-22 04:12:24 GMT 7.312146 -75.192612 36,350 201 510 -3264
2019-09-22 04:12:13 GMT 7.335562 -75.183708 36,900 201 508 -3264
2019-09-22 04:11:52 GMT 7.381835 -75.166092 37,950 201 505 -2944
2019-09-22 04:11:41 GMT 7.406158 -75.156769 38,500 202 504 -2944
2019-09-22 04:11:31 GMT 7.427363 -75.148613 38,950 201 503 -2752
2019-09-22 04:11:20 GMT 7.452222 -75.139099 39,450 201 502 -2752
2019-09-22 04:11:10 GMT 7.473636 -75.131050 39,900 201 502 -2688
2019-09-22 04:11:06 GMT 7.484756 -75.126793 40,125 201 502 -2624
2019-09-22 04:11:00 GMT 7.496772 -75.122238 40,350 201 502 -2304
2019-09-22 04:10:54 GMT 7.508789 -75.117668 40,575 201 504 -2048
2019-09-22 04:10:49 GMT 7.519955 -75.113380 40,725 201 505 -1728
2019-09-22 04:10:38 GMT 7.543854 -75.104263 40,950 201 507 -704
2019-09-22 04:10:27 GMT 7.567200 -75.095367 40,975 201 507 0
2019-09-22 04:10:16 GMT 7.591415 -75.086060 40,975 201 507 -64
2019-09-22 04:10:06 GMT 7.613434 -75.077637 41,000 201 508 -64
2019-09-22 04:10:00 GMT 7.630843 -75.070953 41,000 201 508 -64
2019-09-22 04:09:56 GMT 7.637500 -75.068398 41,000 201 508 -64
2019-09-22 04:09:45 GMT 7.661754 -75.059113 41,000 201 508 0
2019-09-22 04:09:37 GMT 7.682050 -75.051346 40,975 201 509 0
2019-09-22 04:09:34 GMT 7.685169 -75.050163 41,000 201 509 0
2019-09-22 04:09:29 GMT 7.699275 -75.044769 40,975 201 509 0
2019-09-22 04:09:23 GMT 7.708328 -75.041321 40,975 201 509 -64
2019-09-22 04:09:18 GMT 7.721806 -75.036148 41,000 201 509 -64
2019-09-22 04:09:12 GMT 7.732635 -75.032013 40,975 201 509 -64
2019-09-22 04:09:08 GMT 7.744125 -75.027588 41,000 201 509 -64
2019-09-22 04:09:01 GMT 7.757139 -75.022606 41,000 201 509 0
2019-09-22 04:08:51 GMT 7.779251 -75.014175 40,975 201 509 0
2019-09-22 04:08:41 GMT 7.802667 -75.005226 41,000 201 509 0
2019-09-22 04:08:30 GMT 7.826083 -74.996223 40,975 201 509 0
2019-09-22 04:08:19 GMT 7.849731 -74.987183 41,000 201 509 -64
2019-09-22 04:08:15 GMT 7.862766 -74.982162 41,000 201 509 -64
2019-09-22 04:08:09 GMT 7.872961 -74.978279 41,000 201 509 -64
2019-09-22 04:08:03 GMT 7.885297 -74.973541 41,000 201 509 0
2019-09-22 04:07:58 GMT 7.898146 -74.968620 41,000 201 509 0
2019-09-22 04:07:47 GMT 7.920677 -74.959999 40,975 201 509 0
2019-09-22 04:07:37 GMT 7.943893 -74.951103 41,000 201 509 -64
2019-09-22 04:07:31 GMT 7.959824 -74.945007 41,000 201 509 0
2019-09-22 04:07:26 GMT 7.967331 -74.942123 41,000 201 509 -64
2019-09-22 04:07:15 GMT 7.991902 -74.932724 40,975 201 510 0
2019-09-22 04:07:05 GMT 8.015121 -74.923874 41,000 201 510 -64
2019-09-22 04:07:00 GMT 8.028632 -74.918709 40,975 201 510 -64
2019-09-22 04:06:54 GMT 8.038361 -74.914963 40,975 201 510 0
2019-09-22 04:06:49 GMT 8.050372 -74.910423 41,000 201 510 0
2019-09-22 04:06:44 GMT 8.061676 -74.906090 40,975 201 510 -64
2019-09-22 04:06:39 GMT 8.074718 -74.901093 41,000 201 510 -64
2019-09-22 04:06:33 GMT 8.085798 -74.896828 41,000 201 510 0
2019-09-22 04:06:27 GMT 8.098434 -74.892029 41,000 201 510 -64
2019-09-22 04:06:22 GMT 8.109726 -74.887733 41,000 201 510 0
2019-09-22 04:06:17 GMT 8.121918 -74.883095 40,975 201 510 0
2019-09-22 04:06:11 GMT 8.132950 -74.878853 41,000 201 509 0
2019-09-22 04:06:07 GMT 8.146225 -74.873779 40,975 201 509 0
2019-09-22 04:06:01 GMT 8.156650 -74.869789 41,000 201 509 0
2019-09-22 04:05:56 GMT 8.169662 -74.864799 41,000 201 509 0
2019-09-22 04:05:50 GMT 8.180532 -74.860649 41,000 201 509 0
2019-09-22 04:05:45 GMT 8.194218 -74.855392 41,000 201 509 -64
2019-09-22 04:05:37 GMT 8.209254 -74.849663 41,000 201 509 64
2019-09-22 04:05:34 GMT 8.216995 -74.846687 41,000 201 509 0
2019-09-22 04:05:29 GMT 8.227158 -74.842781 41,000 201 509 0
2019-09-22 04:05:24 GMT 8.240891 -74.837517 41,000 201 509 0
2019-09-22 04:05:17 GMT 8.252792 -74.832954 41,000 201 509 0
2019-09-22 04:05:13 GMT 8.264977 -74.828262 41,000 201 509 -64
2019-09-22 04:05:07 GMT 8.274902 -74.824432 40,975 202 509 0
2019-09-22 04:05:01 GMT 8.288393 -74.819260 40,975 201 510 -64
2019-09-22 04:04:56 GMT 8.299892 -74.814812 40,975 202 509 0
2019-09-22 04:04:52 GMT 8.311809 -74.810219 40,975 201 509 -64
2019-09-22 04:04:46 GMT 8.322469 -74.806145 40,975 201 510 -64
2019-09-22 04:04:41 GMT 8.334852 -74.801407 41,000 201 510 -64
2019-09-22 04:04:36 GMT 8.345047 -74.797478 41,000 201 510 -64
2019-09-22 04:04:29 GMT 8.359909 -74.791756 40,975 201 511 0
2019-09-22 04:04:24 GMT 8.369860 -74.787964 40,975 201 511 -64
2019-09-22 04:04:20 GMT 8.382336 -74.783180 40,975 201 511 0
2019-09-22 04:04:13 GMT 8.394104 -74.778671 40,975 202 512 0
2019-09-22 04:04:09 GMT 8.405844 -74.774132 41,000 202 512 -64
2019-09-22 04:04:03 GMT 8.417633 -74.769554 40,975 202 512 0
2019-09-22 04:03:58 GMT 8.429626 -74.764893 41,000 202 512 -64
2019-09-22 04:03:53 GMT 8.440292 -74.760750 41,000 202 513 0
2019-09-22 04:03:48 GMT 8.453374 -74.755714 41,000 201 512 -64
2019-09-22 04:03:41 GMT 8.465385 -74.751122 41,000 201 512 0
2019-09-22 04:03:36 GMT 8.476730 -74.746742 41,000 201 511 0
2019-09-22 04:03:31 GMT 8.488056 -74.742355 41,000 201 511 0
2019-09-22 04:03:26 GMT 8.501370 -74.737244 41,000 201 511 0
2019-09-22 04:03:20 GMT 8.512030 -74.733124 41,000 202 512 -64
2019-09-22 04:03:14 GMT 8.525344 -74.728012 41,000 201 511 -64
2019-09-22 04:03:10 GMT 8.535120 -74.724266 40,975 201 511 0
2019-09-22 04:03:05 GMT 8.549103 -74.718857 41,000 202 512 -64
2019-09-22 04:02:59 GMT 8.559094 -74.714989 41,000 202 512 -64
2019-09-22 04:02:54 GMT 8.573547 -74.709404 41,000 202 512 -64
2019-09-22 04:02:48 GMT 8.583298 -74.705635 40,975 202 512 0
2019-09-22 04:02:43 GMT 8.596573 -74.700516 40,975 202 511 0
2019-09-22 04:02:38 GMT 8.606112 -74.696800 41,000 202 511 -64
2019-09-22 04:02:32 GMT 8.620056 -74.691345 41,000 202 511 -64
2019-09-22 04:02:28 GMT 8.629349 -74.687714 40,975 202 511 -64
2019-09-22 04:02:22 GMT 8.645076 -74.681557 41,000 202 511 -64
2019-09-22 04:02:17 GMT 8.653502 -74.678238 40,975 202 511 -64
2019-09-22 04:02:14 GMT 8.662125 -74.674866 41,000 202 511 -64
2019-09-22 04:02:10 GMT 8.668539 -74.672363 41,000 202 511 -64
2019-09-22 04:02:06 GMT 8.676546 -74.669243 40,975 202 512 0
2019-09-22 04:02:00 GMT 8.690964 -74.663643 41,000 201 511 -64
2019-09-22 04:01:54 GMT 8.706482 -74.657639 41,000 203 512 0
2019-09-22 04:01:50 GMT 8.715225 -74.653915 41,000 205 513 0
2019-09-22 04:01:43 GMT 8.729004 -74.647308 41,000 208 515 64
2019-09-22 04:01:38 GMT 8.737473 -74.642792 40,975 210 515 -64
2019-09-22 04:01:33 GMT 8.752100 -74.634056 41,000 213 517 -64
2019-09-22 04:01:28 GMT 8.759735 -74.629036 41,000 215 518 -64
2019-09-22 04:01:21 GMT 8.772079 -74.620163 40,975 218 519 -64
2019-09-22 04:01:17 GMT 8.781009 -74.613129 40,975 220 519 -64
2019-09-22 04:01:11 GMT 8.792414 -74.603371 40,975 222 521 0
2019-09-22 04:01:07 GMT 8.799537 -74.596786 40,975 224 521 -128
2019-09-22 04:01:00 GMT 8.811676 -74.584549 41,000 227 522 0
2019-09-22 04:00:56 GMT 8.817459 -74.578323 41,000 229 522 -64
2019-09-22 04:00:51 GMT 8.826965 -74.567513 41,000 229 523 0
2019-09-22 04:00:45 GMT 8.835571 -74.557602 41,000 229 522 -64
2019-09-22 04:00:40 GMT 8.844177 -74.547684 40,975 230 521 0
2019-09-22 04:00:35 GMT 8.852097 -74.538467 40,975 230 522 0
2019-09-22 04:00:29 GMT 8.860520 -74.528694 40,975 230 521 -64
2019-09-22 04:00:23 GMT 8.869583 -74.518211 41,000 229 521 -64
2019-09-22 04:00:19 GMT 8.877977 -74.508522 41,000 229 520 0
2019-09-22 04:00:13 GMT 8.885788 -74.499504 40,975 229 520 0
2019-09-22 04:00:07 GMT 8.895155 -74.488724 41,000 229 520 -64
2019-09-22 04:00:03 GMT 8.903229 -74.479393 40,975 229 520 -64
2019-09-22 03:59:58 GMT 8.911029 -74.470444 41,000 229 520 -64
2019-09-22 03:59:51 GMT 8.920166 -74.460075 40,975 229 519 -64
2019-09-22 03:59:47 GMT 8.927416 -74.451981 41,000 228 518 -128
2019-09-22 03:59:41 GMT 8.936866 -74.441658 41,000 227 517 -64
2019-09-22 03:59:36 GMT 8.946213 -74.431625 40,975 227 517 -64
2019-09-22 03:59:31 GMT 8.954773 -74.422455 41,000 227 517 -64
2019-09-22 03:59:26 GMT 8.961365 -74.415428 41,000 227 517 0
2019-09-22 03:59:19 GMT 8.972059 -74.404007 40,975 227 517 0
2019-09-22 03:59:15 GMT 8.978623 -74.396950 41,000 227 517 -64
2019-09-22 03:59:09 GMT 8.989655 -74.385170 41,000 227 517 -64
2019-09-22 03:59:04 GMT 8.997384 -74.376923 40,975 227 517 -64
2019-09-22 03:58:59 GMT 9.007782 -74.365898 41,000 227 517 0
2019-09-22 03:58:54 GMT 9.014740 -74.358543 40,975 227 517 -64
2019-09-22 03:58:47 GMT 9.025269 -74.347610 40,975 226 516 -64
2019-09-22 03:58:42 GMT 9.036896 -74.335732 40,975 225 516 -64
2019-09-22 03:58:38 GMT 9.042865 -74.329803 40,975 225 517 -64
2019-09-22 03:58:33 GMT 9.051058 -74.321655 40,975 225 517 -64
2019-09-22 03:58:27 GMT 9.061523 -74.311295 40,975 225 517 0
2019-09-22 03:58:22 GMT 9.069397 -74.303513 41,000 225 518 -64
2019-09-22 03:58:15 GMT 9.080429 -74.292671 40,975 225 517 -64
2019-09-22 03:58:11 GMT 9.086929 -74.286247 40,975 225 518 0
2019-09-22 03:58:06 GMT 9.097961 -74.275444 40,975 225 517 0
2019-09-22 03:58:00 GMT 9.107433 -74.266159 40,975 225 518 0
2019-09-22 03:57:55 GMT 9.116045 -74.257729 41,000 225 518 -64
2019-09-22 03:57:50 GMT 9.124878 -74.249146 41,000 225 518 -64
2019-09-22 03:57:44 GMT 9.134713 -74.239548 40,975 225 517 0
2019-09-22 03:57:39 GMT 9.142136 -74.232292 41,000 225 516 -64
2019-09-22 03:57:34 GMT 9.153008 -74.221687 41,000 225 516 -64
2019-09-22 03:57:29 GMT 9.160223 -74.214638 40,975 225 516 0
2019-09-22 03:57:23 GMT 9.171256 -74.203888 41,000 225 516 0
2019-09-22 03:57:18 GMT 9.178472 -74.196831 40,975 225 516 0
2019-09-22 03:57:12 GMT 9.190338 -74.185226 41,000 225 516 0
2019-09-22 03:57:07 GMT 9.197419 -74.178360 40,975 225 516 0
2019-09-22 03:57:01 GMT 9.208405 -74.167610 40,975 225 516 0
2019-09-22 03:56:55 GMT 9.217529 -74.158691 41,000 225 516 -64
2019-09-22 03:56:49 GMT 9.228050 -74.148483 41,000 225 516 -64
2019-09-22 03:56:45 GMT 9.235794 -74.140953 41,000 224 515 0
2019-09-22 03:56:40 GMT 9.245926 -74.131058 41,000 224 515 0
2019-09-22 03:56:35 GMT 9.251953 -74.125221 41,000 224 515 0
2019-09-22 03:56:28 GMT 9.264547 -74.113014 41,000 224 515 0
2019-09-22 03:56:24 GMT 9.271637 -74.106133 40,975 224 515 -64
2019-09-22 03:56:18 GMT 9.281982 -74.096123 41,000 224 515 -64
2019-09-22 03:56:14 GMT 9.288335 -74.089951 40,975 224 515 0
2019-09-22 03:56:08 GMT 9.300613 -74.078064 40,975 224 515 -64
2019-09-22 03:56:03 GMT 9.308167 -74.070709 41,000 224 515 -64
2019-09-22 03:55:56 GMT 9.319013 -74.060165 40,975 224 516 0
2019-09-22 03:55:46 GMT 9.337634 -74.042076 40,975 224 516 0
2019-09-22 03:55:36 GMT 9.356348 -74.023987 41,000 224 517 -64
2019-09-22 03:55:25 GMT 9.375062 -74.005943 41,000 224 517 -64
2019-09-22 03:55:14 GMT 9.393450 -73.988235 41,000 224 517 -64
2019-09-22 03:55:04 GMT 9.412033 -73.970299 41,000 224 518 -64
2019-09-22 03:54:53 GMT 9.430599 -73.952286 40,975 224 518 0
2019-09-22 03:54:44 GMT 9.444797 -73.938461 40,975 225 519 64
2019-09-22 03:54:41 GMT 9.449266 -73.934059 40,975 225 519 -64
2019-09-22 03:54:32 GMT 9.466863 -73.916771 41,000 225 518 -64
2019-09-22 03:54:21 GMT 9.485065 -73.898827 41,000 225 517 -64
2019-09-22 03:54:10 GMT 9.503639 -73.880592 41,000 225 516 0
2019-09-22 03:54:00 GMT 9.521988 -73.862526 41,000 225 516 0
2019-09-22 03:53:48 GMT 9.540939 -73.844048 41,000 224 514 0
2019-09-22 03:53:38 GMT 9.558757 -73.826942 41,000 224 515 -64
2019-09-22 03:53:28 GMT 9.577972 -73.809227 41,000 222 513 -64
2019-09-22 03:53:17 GMT 9.596744 -73.793320 40,975 219 512 0
2019-09-22 03:53:05 GMT 9.617599 -73.776649 40,975 219 511 0
2019-09-22 03:52:56 GMT 9.636795 -73.761368 41,000 219 511 -64
2019-09-22 03:52:45 GMT 9.658193 -73.744308 40,975 219 511 -64
2019-09-22 03:52:35 GMT 9.676441 -73.729767 41,000 219 511 -64
2019-09-22 03:52:24 GMT 9.696671 -73.713562 40,975 219 511 -64
2019-09-22 03:52:12 GMT 9.717087 -73.697174 40,975 219 510 0
2019-09-22 03:52:03 GMT 9.735626 -73.682228 41,000 219 510 -64
2019-09-22 03:51:52 GMT 9.755310 -73.666451 40,975 219 511 0
2019-09-22 03:51:41 GMT 9.774765 -73.651085 41,000 218 511 -64
2019-09-22 03:51:31 GMT 9.795822 -73.635582 41,000 215 509 64
2019-09-22 03:51:19 GMT 9.819776 -73.620850 40,975 210 507 -64
2019-09-22 03:51:10 GMT 9.838989 -73.611427 41,000 204 504 0
2019-09-22 03:50:58 GMT 9.864349 -73.600296 41,000 204 504 0
2019-09-22 03:50:48 GMT 9.886066 -73.590828 41,000 204 503 64
2019-09-22 03:50:37 GMT 9.909439 -73.580559 41,000 204 503 0
2019-09-22 03:50:28 GMT 9.927218 -73.572739 41,000 204 503 -64
2019-09-22 03:50:25 GMT 9.932602 -73.570412 40,975 204 503 -64
2019-09-22 03:50:15 GMT 9.955353 -73.560402 40,975 204 504 -64
2019-09-22 03:50:05 GMT 9.977960 -73.550529 40,975 204 504 -64
2019-09-22 03:49:54 GMT 10.001143 -73.540398 41,000 204 504 0
2019-09-22 03:49:43 GMT 10.024155 -73.530327 41,000 204 503 0
2019-09-22 03:49:33 GMT 10.046906 -73.520370 40,975 204 503 -64
2019-09-22 03:49:25 GMT 10.063430 -73.513123 40,975 204 504 -64
2019-09-22 03:49:22 GMT 10.069854 -73.510277 40,975 204 504 0
2019-09-22 03:49:14 GMT 10.093037 -73.500145 41,000 204 504 -64
2019-09-22 03:49:11 GMT 10.093037 -73.500145 40,975 204 504 -64
2019-09-22 03:49:01 GMT 10.116220 -73.489967 40,975 204 504 -64
2019-09-22 03:48:53 GMT 10.130838 -73.483574 40,975 204 503 0
2019-09-22 03:48:50 GMT 10.139403 -73.479782 40,975 204 503 0
2019-09-22 03:48:41 GMT 10.162354 -73.469765 41,000 204 503 -64
2019-09-22 03:48:32 GMT 10.175854 -73.463821 40,975 204 503 0
2019-09-22 03:48:29 GMT 10.184647 -73.459991 40,975 204 503 0
2019-09-22 03:48:22 GMT 10.197733 -73.454262 40,975 204 503 -64
2019-09-22 03:48:18 GMT 10.207602 -73.449951 40,975 204 502 -64
2019-09-22 03:48:12 GMT 10.220215 -73.444443 41,000 204 502 -64
2019-09-22 03:48:09 GMT 10.225152 -73.442276 41,000 204 502 -64
2019-09-22 03:48:06 GMT 10.230469 -73.439926 40,975 204 502 -64
2019-09-22 03:48:00 GMT 10.243332 -73.434341 41,000 204 502 -64
2019-09-22 03:47:57 GMT 10.253174 -73.430008 41,000 204 502 0
2019-09-22 03:47:51 GMT 10.265793 -73.424469 41,000 204 502 0
2019-09-22 03:47:46 GMT 10.276453 -73.419785 40,975 204 501 0
2019-09-22 03:47:40 GMT 10.287579 -73.414909 40,975 204 501 0
2019-09-22 03:47:35 GMT 10.298035 -73.410316 41,000 204 501 0
2019-09-22 03:47:30 GMT 10.310669 -73.404770 40,975 204 501 -64
2019-09-22 03:47:25 GMT 10.321106 -73.400169 40,975 204 501 -64
2019-09-22 03:47:18 GMT 10.332874 -73.395020 41,000 204 501 -64
2019-09-22 03:47:14 GMT 10.344838 -73.389763 40,975 204 501 0
2019-09-22 03:47:09 GMT 10.355301 -73.385178 40,975 204 501 0
2019-09-22 03:47:02 GMT 10.367044 -73.380005 41,000 204 501 -64
2019-09-22 03:46:58 GMT 10.377285 -73.375504 41,000 204 501 0
2019-09-22 03:46:52 GMT 10.389908 -73.369957 41,000 204 501 -64
2019-09-22 03:46:48 GMT 10.399704 -73.365677 40,975 204 501 0
2019-09-22 03:46:42 GMT 10.413130 -73.359787 41,000 204 500 -64
2019-09-22 03:46:37 GMT 10.422068 -73.355858 41,000 204 500 -64
2019-09-22 03:46:31 GMT 10.435089 -73.350128 40,975 204 500 -64
2019-09-22 03:46:27 GMT 10.444227 -73.346146 41,000 204 500 0
2019-09-22 03:46:20 GMT 10.458286 -73.339943 41,000 204 500 0
2019-09-22 03:46:16 GMT 10.466805 -73.336205 40,975 204 499 0
2019-09-22 03:46:10 GMT 10.481702 -73.329697 40,975 204 499 -64
2019-09-22 03:46:06 GMT 10.488917 -73.326515 41,000 204 499 0
2019-09-22 03:45:58 GMT 10.504233 -73.319763 40,975 204 499 -64
2019-09-22 03:45:55 GMT 10.511261 -73.316643 41,000 204 499 0
2019-09-22 03:45:48 GMT 10.526764 -73.309837 40,975 204 499 -64
2019-09-22 03:45:45 GMT 10.533371 -73.306938 41,000 204 498 -64
2019-09-22 03:45:38 GMT 10.549715 -73.299721 40,975 204 498 0
2019-09-22 03:45:34 GMT 10.555847 -73.297043 40,975 204 498 -64
2019-09-22 03:45:27 GMT 10.569855 -73.290886 41,000 204 498 0
2019-09-22 03:45:24 GMT 10.577911 -73.287331 41,000 204 498 0
2019-09-22 03:45:16 GMT 10.594437 -73.280037 41,000 204 497 0
2019-09-22 03:45:13 GMT 10.600388 -73.277435 41,000 204 497 0
2019-09-22 03:45:06 GMT 10.617325 -73.270050 40,975 204 497 -64
2019-09-22 03:44:58 GMT 10.632980 -73.263130 41,000 204 497 -64
2019-09-22 03:44:55 GMT 10.638885 -73.260574 40,975 204 496 0
2019-09-22 03:44:44 GMT 10.661533 -73.250618 41,000 204 496 0
2019-09-22 03:44:34 GMT 10.684525 -73.240501 40,975 204 496 0
2019-09-22 03:44:22 GMT 10.730164 -73.220421 40,975 204 496 -64
2019-09-22 03:44:11 GMT 10.730164 -73.220421 41,000 204 497 -64
2019-09-22 03:44:02 GMT 10.751770 -73.210953 41,000 204 497 0
2019-09-22 03:43:50 GMT 10.775070 -73.200722 41,000 204 498 0
2019-09-22 03:43:44 GMT 10.788016 -73.195015 40,975 204 498 0
2019-09-22 03:43:39 GMT 10.798370 -73.190445 40,975 204 499 -64
2019-09-22 03:43:30 GMT 10.833252 -73.175102 40,975 204 499 0
2019-09-22 03:43:19 GMT 10.842590 -73.170982 40,975 204 499 -64
2019-09-22 03:43:15 GMT 10.848953 -73.168137 40,975 204 499 -64
2019-09-22 03:43:07 GMT 10.865982 -73.160660 40,975 204 499 0
2019-09-22 03:42:58 GMT 10.889220 -73.150391 40,975 204 500 -64
2019-09-22 03:42:50 GMT 10.901975 -73.144753 40,975 204 500 -64
2019-09-22 03:42:46 GMT 10.911575 -73.140533 41,000 204 500 0
2019-09-22 03:42:35 GMT 10.933731 -73.130775 40,975 204 500 64
2019-09-22 03:42:26 GMT 10.956757 -73.120644 41,000 204 500 -64
2019-09-22 03:42:15 GMT 10.978912 -73.110840 41,000 204 501 0
2019-09-22 03:42:03 GMT 11.002808 -73.100281 41,000 204 501 0
2019-09-22 03:41:54 GMT 11.025009 -73.090477 41,000 204 501 0
2019-09-22 03:41:43 GMT 11.047668 -73.080482 41,000 204 501 0
2019-09-22 03:41:31 GMT 11.070740 -73.070259 41,000 204 503 -64
2019-09-22 03:41:21 GMT 11.094097 -73.059898 41,000 204 504 0
2019-09-22 03:41:11 GMT 11.116196 -73.050133 41,000 204 505 0
2019-09-22 03:40:59 GMT 11.140090 -73.039665 41,000 204 505 0
2019-09-22 03:40:49 GMT 11.162750 -73.029724 40,975 204 506 0
2019-09-22 03:40:39 GMT 11.186050 -73.019447 41,000 204 508 -64
2019-09-22 03:40:28 GMT 11.209220 -73.009163 41,000 204 509 0
2019-09-22 03:40:20 GMT 11.227203 -73.001213 41,000 204 510 0
2019-09-22 03:40:16 GMT 11.231964 -72.999130 40,975 204 510 64
2019-09-22 03:40:07 GMT 11.255035 -72.988953 40,975 204 511 0
2019-09-22 03:39:59 GMT 11.272205 -72.981361 40,975 204 511 0
2019-09-22 03:39:56 GMT 11.277885 -72.978851 40,975 204 511 -64
2019-09-22 03:39:45 GMT 11.301178 -72.968590 40,975 204 511 0
2019-09-22 03:39:38 GMT 11.325531 -72.957787 40,975 204 511 0
2019-09-22 03:39:34 GMT 11.325531 -72.957787 40,975 204 511 0
2019-09-22 03:39:24 GMT 11.348830 -72.947487 41,000 204 510 -64
2019-09-22 03:39:17 GMT 11.363587 -72.940933 41,000 204 510 0
2019-09-22 03:39:13 GMT 11.370989 -72.937653 40,975 204 510 -64
2019-09-22 03:39:06 GMT 11.386212 -72.930954 40,975 204 511 -64
2019-09-22 03:39:03 GMT 11.395111 -72.927010 41,000 204 510 -64
2019-09-22 03:38:56 GMT 11.409255 -72.920738 40,975 204 510 0
2019-09-22 03:38:52 GMT 11.418379 -72.916740 41,000 204 510 -64
2019-09-22 03:38:45 GMT 11.431414 -72.910912 40,975 204 510 0
2019-09-22 03:38:41 GMT 11.442032 -72.906219 41,000 204 510 -64
2019-09-22 03:38:35 GMT 11.454208 -72.900826 40,975 204 509 64
2019-09-22 03:38:31 GMT 11.461766 -72.897469 41,000 204 509 -64
2019-09-22 03:38:24 GMT 11.477408 -72.890579 40,975 204 508 -64
2019-09-22 03:38:20 GMT 11.486066 -72.886719 41,000 204 508 -64
2019-09-22 03:38:14 GMT 11.500311 -72.880409 41,000 204 508 -64
2019-09-22 03:38:09 GMT 11.508316 -72.876862 41,000 204 508 -64
2019-09-22 03:38:03 GMT 11.523010 -72.870323 40,975 204 507 64
2019-09-22 03:37:58 GMT 11.532074 -72.866302 40,975 204 507 -64
2019-09-22 03:37:53 GMT 11.545898 -72.860191 40,975 204 507 0
2019-09-22 03:37:41 GMT 11.568557 -72.850197 40,975 204 506 0
2019-09-22 03:37:36 GMT 11.580661 -72.844894 40,975 204 506 0
2019-09-22 03:37:32 GMT 11.590576 -72.840561 40,975 204 506 64
2019-09-22 03:37:26 GMT 11.600693 -72.836044 41,000 204 506 -64
2019-09-22 03:37:20 GMT 11.614644 -72.829819 41,000 204 505 -64
2019-09-22 03:37:09 GMT 11.637680 -72.819511 40,975 204 505 0
2019-09-22 03:36:59 GMT 11.660889 -72.809235 41,000 204 505 0
2019-09-22 03:36:48 GMT 11.682563 -72.799652 41,000 204 504 0
2019-09-22 03:36:43 GMT 11.693115 -72.795029 40,975 204 504 64
2019-09-22 03:36:38 GMT 11.705793 -72.789436 40,975 204 504 64
2019-09-22 03:36:33 GMT 11.716547 -72.784714 41,000 204 504 0
2019-09-22 03:36:28 GMT 11.728976 -72.779175 40,975 204 504 -64
2019-09-22 03:36:16 GMT 11.751693 -72.769104 41,000 204 504 -64
2019-09-22 03:36:06 GMT 11.774643 -72.758904 40,975 204 504 -64
2019-09-22 03:35:56 GMT 11.798013 -72.748528 40,975 204 503 -64
2019-09-22 03:35:45 GMT 11.821103 -72.738258 40,975 204 503 0
2019-09-22 03:35:33 GMT 11.844658 -72.727806 41,000 204 503 0
2019-09-22 03:35:24 GMT 11.866241 -72.718178 40,975 204 502 64
2019-09-22 03:35:13 GMT 11.888855 -72.708138 40,975 204 501 0
2019-09-22 03:35:02 GMT 11.911694 -72.697983 40,975 204 501 -64
2019-09-22 03:34:52 GMT 11.933899 -72.688148 40,975 204 501 0
2019-09-22 03:34:41 GMT 11.957520 -72.677635 41,000 204 501 -64
2019-09-22 03:34:28 GMT 11.982239 -72.666603 41,000 204 501 -64
2019-09-22 03:34:20 GMT 12.002655 -72.657516 41,000 204 500 -64
2019-09-22 03:34:08 GMT 12.025886 -72.647240 40,975 204 500 -64
2019-09-22 03:33:58 GMT 12.047379 -72.637764 41,000 204 499 0
2019-09-22 03:33:48 GMT 12.070530 -72.627480 41,000 204 498 64
2019-09-22 03:33:37 GMT 12.092377 -72.617737 40,975 204 497 0
2019-09-22 03:33:24 GMT 12.119019 -72.605804 41,000 204 497 -64
2019-09-22 03:33:16 GMT 12.137891 -72.597412 41,000 204 498 -64
2019-09-22 03:33:04 GMT 12.160950 -72.587189 40,975 204 497 0
2019-09-22 03:32:55 GMT 12.183380 -72.577248 40,975 204 496 0
2019-09-22 03:32:44 GMT 12.204941 -72.567635 41,000 204 496 -64
2019-09-22 03:32:33 GMT 12.227504 -72.557617 41,000 204 496 -64
2019-09-22 03:32:23 GMT 12.250488 -72.547417 41,000 204 495 -64
2019-09-22 03:32:12 GMT 12.272613 -72.537567 41,000 204 495 0
2019-09-22 03:32:00 GMT 12.295120 -72.527527 40,975 204 494 0
2019-09-22 03:31:51 GMT 12.318048 -72.517334 41,000 204 493 0
2019-09-22 03:31:39 GMT 12.340253 -72.507454 41,000 204 492 0
2019-09-22 03:31:29 GMT 12.362040 -72.497719 40,975 204 492 0
2019-09-22 03:31:19 GMT 12.384618 -72.487648 40,975 204 491 0
2019-09-22 03:31:08 GMT 12.407364 -72.477470 40,975 204 491 0
2019-09-22 03:31:03 GMT 12.418042 -72.472755 41,000 204 491 0
2019-09-22 03:30:56 GMT 12.429520 -72.467621 41,000 204 491 0
2019-09-22 03:30:51 GMT 12.439545 -72.463165 40,975 204 491 0
2019-09-22 03:30:46 GMT 12.451886 -72.457680 40,975 204 491 64
2019-09-22 03:30:36 GMT 12.473831 -72.447876 40,975 204 491 -64
2019-09-22 03:30:24 GMT 12.496399 -72.437737 41,000 204 492 -64
2019-09-22 03:30:19 GMT 12.508987 -72.432152 41,000 204 492 0
2019-09-22 03:30:14 GMT 12.518409 -72.427948 41,000 204 492 -64
2019-09-22 03:30:11 GMT 12.525112 -72.424957 40,975 204 492 -64
2019-09-22 03:30:04 GMT 12.541452 -72.417686 41,000 204 492 -64
2019-09-22 03:29:53 GMT 12.563192 -72.407951 41,000 204 492 0
2019-09-22 03:29:42 GMT 12.585205 -72.398201 41,000 204 492 0
2019-09-22 03:29:32 GMT 12.607975 -72.388000 40,975 204 491 0
2019-09-22 03:29:20 GMT 12.630341 -72.378021 40,975 204 491 0
2019-09-22 03:29:11 GMT 12.652293 -72.368240 40,975 204 491 0
2019-09-22 03:29:00 GMT 12.674405 -72.358315 40,975 205 491 -64
2019-09-22 03:28:49 GMT 12.696518 -72.348442 41,000 203 489 -64
2019-09-22 03:28:39 GMT 12.720016 -72.339195 41,000 200 487 -64
2019-09-22 03:28:27 GMT 12.742465 -72.331429 41,000 198 484 -64
2019-09-22 03:28:17 GMT 12.764856 -72.324783 41,000 195 482 -64
2019-09-22 03:28:06 GMT 12.789871 -72.318687 40,975 193 480 -64
2019-09-22 03:27:56 GMT 12.811967 -72.313988 40,975 192 480 -64
2019-09-22 03:27:44 GMT 12.835785 -72.309738 40,975 188 476 0
2019-09-22 03:27:35 GMT 12.859264 -72.307434 41,000 183 474 -64
2019-09-22 03:27:24 GMT 12.881882 -72.307137 41,000 179 473 -64
2019-09-22 03:27:13 GMT 12.904678 -72.307510 41,000 179 472 -64
2019-09-22 03:27:02 GMT 12.931366 -72.307228 41,000 184 471 0
2019-09-22 03:26:51 GMT 12.954483 -72.304955 41,000 190 473 -64
2019-09-22 03:26:40 GMT 12.978149 -72.299797 41,000 197 474 0
2019-09-22 03:26:29 GMT 12.998657 -72.292931 40,975 201 476 -128
2019-09-22 03:26:17 GMT 13.023687 -72.282043 41,000 205 476 64
2019-09-22 03:26:08 GMT 13.044682 -72.272354 41,000 205 477 0
2019-09-22 03:25:57 GMT 13.065305 -72.262863 41,000 205 478 64
2019-09-22 03:25:46 GMT 13.088562 -72.252151 41,000 205 479 -64
2019-09-22 03:25:36 GMT 13.107900 -72.243347 41,000 204 480 -64
2019-09-22 03:25:23 GMT 13.131921 -72.232506 41,000 204 480 -64
2019-09-22 03:25:14 GMT 13.152145 -72.223557 40,975 204 480 -64
2019-09-22 03:25:04 GMT 13.173477 -72.214180 40,975 204 481 0
2019-09-22 03:24:53 GMT 13.195092 -72.204750 40,975 204 482 -64
2019-09-22 03:24:43 GMT 13.217926 -72.194763 41,000 204 483 -64
2019-09-22 03:24:32 GMT 13.239550 -72.185234 41,000 204 483 -64
2019-09-22 03:24:20 GMT 13.263058 -72.174873 41,000 204 483 0
2019-09-22 03:22:55 GMT 13.435860 -72.094070 40,975 218 486 64
2019-09-22 03:22:45 GMT 13.456238 -72.078461 41,000 221 488 -64
2019-09-22 03:22:33 GMT 13.475756 -72.059372 41,000 228 489 0
2019-09-22 03:22:12 GMT 13.504028 -72.020729 40,975 240 494 -64
2019-09-22 03:22:02 GMT 13.513742 -72.002899 41,000 243 495 -64
2019-09-22 03:21:05 GMT 13.574167 -71.880219 41,000 244 497 0
2019-09-22 03:19:49 GMT 13.653725 -71.720146 41,000 244 495 0
2019-09-22 03:19:44 GMT 13.658249 -71.711128 41,000 244 495 0
2019-09-22 03:19:34 GMT 13.669876 -71.687637 41,000 244 495 0
2019-09-22 03:19:21 GMT 13.682327 -71.662445 41,000 244 495 0
2019-09-22 03:19:11 GMT 13.692032 -71.642746 40,975 244 495 0
2019-09-22 03:19:01 GMT 13.703489 -71.619438 40,975 244 495 0
2019-09-22 03:17:57 GMT 13.770012 -71.484184 41,000 244 496 -64
2019-09-22 03:17:46 GMT 13.780518 -71.462891 41,000 244 496 0
2019-09-22 03:16:59 GMT 13.829773 -71.365105 41,000 243 494 -64
2019-09-22 03:16:09 GMT 13.882736 -71.260925 40,975 243 497 0
2019-09-22 03:15:42 GMT 13.911163 -71.205185 41,000 243 496 0
2019-09-22 03:15:39 GMT 13.915302 -71.196999 41,000 243 496 0
2019-09-22 03:15:01 GMT 13.955756 -71.118553 41,000 242 495 0
2019-09-22 03:14:19 GMT 14.008118 -71.035370 40,975 234 494 0
2019-09-22 03:14:14 GMT 14.014784 -71.026077 40,975 234 495 0
2019-09-22 03:13:02 GMT 14.109009 -70.886864 41,000 242 494 -64
2019-09-22 03:12:44 GMT 14.127347 -70.848083 41,000 245 494 0
2019-09-22 03:12:31 GMT 14.140009 -70.820908 40,975 245 494 0
2019-09-22 03:12:13 GMT 14.157761 -70.782494 41,000 245 493 0
2019-09-22 03:12:03 GMT 14.167289 -70.761925 41,000 245 492 -64
2019-09-22 03:11:52 GMT 14.177948 -70.738884 40,975 245 492 0
2019-09-22 03:11:42 GMT 14.187973 -70.717293 40,975 245 492 0
2019-09-22 03:11:31 GMT 14.198639 -70.694511 40,975 245 491 0
2019-09-22 03:11:21 GMT 14.209122 -70.672211 40,975 245 491 0
2019-09-22 03:11:10 GMT 14.219428 -70.650574 40,975 244 491 0
2019-09-22 03:10:59 GMT 14.230228 -70.627922 41,000 244 491 -64
2019-09-22 03:10:49 GMT 14.240753 -70.605865 41,000 245 491 0
2019-09-22 03:10:38 GMT 14.251223 -70.583786 40,975 245 491 0
2019-09-22 03:10:28 GMT 14.261673 -70.561684 40,975 245 491 -64
2019-09-22 03:10:17 GMT 14.272247 -70.539330 41,000 245 492 -64
2019-09-22 03:10:07 GMT 14.282692 -70.517197 40,975 245 492 0
2019-09-22 03:09:56 GMT 14.293121 -70.494957 40,975 245 493 0
2019-09-22 03:09:46 GMT 14.303696 -70.472557 41,000 245 492 -64
2019-09-22 03:09:35 GMT 14.314224 -70.450165 40,975 245 493 0
2019-09-22 03:09:25 GMT 14.324496 -70.428436 41,000 245 492 -64
2019-09-22 03:09:13 GMT 14.335785 -70.404602 40,975 245 492 0
2019-09-22 03:09:03 GMT 14.346130 -70.382683 41,000 245 491 0
2019-09-22 03:08:52 GMT 14.356659 -70.360329 40,975 245 491 0
2019-09-22 03:08:42 GMT 14.367188 -70.337975 41,000 245 492 0
2019-09-22 03:08:30 GMT 14.378998 -70.312546 41,000 245 492 64
2019-09-22 03:08:18 GMT 14.389893 -70.288208 40,975 246 493 0
2019-09-22 03:08:10 GMT 14.397397 -70.270287 41,000 248 494 -64
2019-09-22 03:08:00 GMT 14.406056 -70.247452 40,975 250 495 -64
2019-09-22 03:07:49 GMT 14.414528 -70.224564 41,000 250 494 0
2019-09-22 03:07:38 GMT 14.423538 -70.200172 40,975 250 493 0
2019-09-22 03:07:28 GMT 14.431613 -70.178452 41,000 250 492 -64
2019-09-22 03:07:17 GMT 14.440521 -70.154572 41,000 250 492 -64
2019-09-22 03:07:07 GMT 14.448744 -70.132431 41,000 250 492 -64
2019-09-22 03:06:57 GMT 14.457504 -70.109016 40,975 250 492 0
2019-09-22 03:06:46 GMT 14.465829 -70.086464 41,000 250 492 0
2019-09-22 03:06:35 GMT 14.475418 -70.060631 40,975 250 492 0
2019-09-22 03:06:25 GMT 14.483565 -70.038712 41,000 250 492 0
2019-09-22 03:06:14 GMT 14.492456 -70.015099 40,975 249 492 0
2019-09-22 03:06:02 GMT 14.501953 -69.989868 40,975 249 493 0
2019-09-22 03:05:53 GMT 14.509820 -69.969078 41,000 249 493 -64
2019-09-22 03:05:42 GMT 14.518758 -69.945419 40,975 249 493 0
2019-09-22 03:05:31 GMT 14.527603 -69.922150 40,975 249 494 0
2019-09-22 03:05:20 GMT 14.536728 -69.898010 40,975 249 494 0
2019-09-22 03:05:10 GMT 14.545395 -69.874893 40,975 249 495 0
2019-09-22 03:05:00 GMT 14.553673 -69.852661 41,000 250 494 0
2019-09-22 03:04:49 GMT 14.562195 -69.828484 41,000 252 494 0
2019-09-22 03:04:38 GMT 14.569361 -69.804337 40,975 256 495 0
2019-09-22 03:04:28 GMT 14.574234 -69.779518 40,975 262 497 -64
2019-09-22 03:04:17 GMT 14.576949 -69.755714 41,000 265 498 -64
2019-09-22 03:04:07 GMT 14.579407 -69.730370 40,975 265 499 -64
2019-09-22 03:03:56 GMT 14.581696 -69.705742 41,000 265 499 -64
2019-09-22 03:03:46 GMT 14.584071 -69.680931 41,000 265 498 0
2019-09-22 03:03:31 GMT 14.587280 -69.646690 41,000 265 498 0
2019-09-22 03:03:25 GMT 14.588820 -69.630867 40,975 265 497 -64
2019-09-22 03:03:14 GMT 14.591147 -69.605858 41,000 265 497 0
2019-09-22 03:03:04 GMT 14.593475 -69.581329 40,975 265 497 0
2019-09-22 03:02:53 GMT 14.595795 -69.556572 40,975 265 497 0
2019-09-22 03:02:42 GMT 14.598223 -69.530884 41,000 265 496 -64
2019-09-22 03:02:32 GMT 14.600555 -69.506615 41,000 265 496 -64
2019-09-22 03:02:21 GMT 14.602971 -69.480957 41,000 265 496 0
2019-09-22 03:02:10 GMT 14.605270 -69.456230 40,975 265 496 64
2019-09-22 03:02:00 GMT 14.607605 -69.431320 41,000 265 496 -64
2019-09-22 03:01:49 GMT 14.609985 -69.406837 41,000 265 496 -64
2019-09-22 03:01:39 GMT 14.612366 -69.381882 41,000 265 497 0
2019-09-22 03:01:28 GMT 14.614749 -69.357124 40,975 265 497 -64
2019-09-22 03:01:18 GMT 14.616898 -69.332298 41,000 265 497 0
2019-09-22 03:01:07 GMT 14.620382 -69.306236 41,000 260 496 -64
2019-09-22 03:00:56 GMT 14.626294 -69.281517 41,000 253 494 0
2019-09-22 03:00:46 GMT 14.634394 -69.258537 40,975 248 492 64
2019-09-22 03:00:35 GMT 14.644450 -69.236946 40,975 242 490 0
2019-09-22 03:00:24 GMT 14.657950 -69.214783 41,000 235 489 0
2019-09-22 03:00:14 GMT 14.672012 -69.194450 41,000 235 489 -64
2019-09-22 03:00:03 GMT 14.685745 -69.174660 41,000 235 490 0
2019-09-22 02:59:53 GMT 14.699614 -69.154694 41,000 235 489 -64
2019-09-22 02:59:42 GMT 14.713486 -69.134689 40,975 235 490 -64
2019-09-22 02:59:31 GMT 14.727722 -69.114090 41,000 235 490 -64
2019-09-22 02:59:20 GMT 14.742675 -69.092537 41,000 235 491 -64
2019-09-22 02:59:10 GMT 14.755616 -69.073891 41,000 235 490 0
2019-09-22 02:59:00 GMT 14.769196 -69.054237 41,000 235 490 -64
2019-09-22 02:58:49 GMT 14.783936 -69.032875 41,000 235 489 0
2019-09-22 02:58:38 GMT 14.797467 -69.013321 40,975 235 489 64
2019-09-22 02:58:28 GMT 14.811539 -68.992958 40,975 235 488 0
2019-09-22 02:58:17 GMT 14.825352 -68.972984 41,000 235 488 0
2019-09-22 02:58:07 GMT 14.839271 -68.952843 40,975 235 488 -64
2019-09-22 02:57:56 GMT 14.852783 -68.933235 41,000 235 489 -64
2019-09-22 02:57:45 GMT 14.867155 -68.912476 41,000 235 490 -64
2019-09-22 02:57:32 GMT 14.885357 -68.886139 41,000 235 491 -64
2019-09-22 02:57:23 GMT 14.896088 -68.870644 40,975 235 491 0
2019-09-22 02:57:14 GMT 14.909192 -68.851662 41,000 235 492 0
2019-09-22 02:57:00 GMT 14.927441 -68.825180 41,000 235 493 -64
2019-09-22 02:56:52 GMT 14.937449 -68.810562 40,975 235 493 -64
2019-09-22 02:56:42 GMT 14.950670 -68.791382 40,975 235 492 -64
2019-09-22 02:56:31 GMT 14.966125 -68.768921 41,000 235 492 0
2019-09-22 02:56:20 GMT 14.980179 -68.748589 40,975 235 492 0
2019-09-22 02:56:10 GMT 14.993265 -68.729584 40,975 235 492 0
2019-09-22 02:56:00 GMT 15.006638 -68.710182 41,000 235 493 0
2019-09-22 02:55:49 GMT 15.021104 -68.689270 41,000 235 494 0
2019-09-22 02:55:39 GMT 15.034515 -68.669800 40,975 235 494 -64
2019-09-22 02:55:28 GMT 15.048476 -68.649544 41,000 235 494 -64
2019-09-22 02:55:07 GMT 15.076920 -68.608200 41,000 235 496 0
2019-09-22 02:54:40 GMT 15.112930 -68.555794 41,000 235 494 0
2019-09-22 02:54:36 GMT 15.118631 -68.547478 40,975 235 494 -64
2019-09-22 02:54:25 GMT 15.132969 -68.526634 41,000 235 494 -64
2019-09-22 02:53:06 GMT 15.237808 -68.374039 40,975 235 495 -64
2019-09-22 02:53:01 GMT 15.244446 -68.364403 41,000 235 495 0
We lost coverage of the aircraft here for a total of 6 minutes
2019-09-22 02:47:22 GMT 15.698206 -67.699814 40,975 235 504 -64
2019-09-22 02:47:19 GMT 15.702118 -67.694046 41,000 235 504 -64
2019-09-22 02:47:09 GMT 15.715622 -67.674286 40,975 235 505 0
2019-09-22 02:46:52 GMT 15.739265 -67.639633 41,000 235 505 -64
2019-09-22 02:46:47 GMT 15.745880 -67.629959 40,975 235 505 0
2019-09-22 02:46:37 GMT 15.759795 -67.609566 41,000 235 505 0
2019-09-22 02:44:39 GMT 15.915070 -67.372551 40,975 237 506 64
2019-09-22 02:44:28 GMT 15.928757 -67.351013 40,975 237 507 0
2019-09-22 02:42:41 GMT 16.068157 -67.131615 41,000 237 509 -64
2019-09-22 02:42:38 GMT 16.070892 -67.127335 41,000 237 509 0
2019-09-22 02:42:29 GMT 16.083471 -67.107483 41,000 237 509 0
We lost coverage of the aircraft here for a total of 275 minutes
2019-09-21 22:07:51 GMT 36.296997 -31.329174 38,975 237 467 0
2019-09-21 22:07:36 GMT 36.315765 -31.294441 39,000 237 468 -64
2019-09-21 22:07:31 GMT 36.321533 -31.283684 39,000 237 468 -64
2019-09-21 22:07:05 GMT 36.352222 -31.226768 38,975 237 469 -64
2019-09-21 22:07:00 GMT 36.358841 -31.214447 38,975 237 469 0
2019-09-21 22:06:29 GMT 36.395508 -31.146069 38,975 237 468 0
2019-09-21 22:06:13 GMT 36.414963 -31.109905 38,975 237 469 0
2019-09-21 22:04:43 GMT 36.522903 -30.907860 38,975 237 468 -64
2019-09-21 22:04:23 GMT 36.546341 -30.863914 39,000 237 468 -64
2019-09-21 22:04:10 GMT 36.562042 -30.834332 38,975 237 467 0
2019-09-21 22:03:57 GMT 36.577057 -30.806122 39,000 237 467 0
2019-09-21 22:03:53 GMT 36.582047 -30.796680 38,975 237 467 0
2019-09-21 22:01:59 GMT 36.717133 -30.541248 38,975 237 467 0
2019-09-21 22:01:53 GMT 36.724083 -30.528027 39,000 237 467 0
2019-09-21 22:01:20 GMT 36.763687 -30.452785 38,975 237 465 0
2019-09-21 22:00:12 GMT 36.844280 -30.299124 38,975 237 466 -64
2019-09-21 21:59:38 GMT 36.884216 -30.222746 38,975 238 467 0
2019-09-21 21:59:10 GMT 36.916531 -30.160755 39,000 237 466 0
2019-09-21 21:58:08 GMT 36.989044 -30.021135 38,975 238 463 0
2019-09-21 21:57:56 GMT 37.003143 -29.994312 39,000 237 463 0
2019-09-21 21:57:48 GMT 37.013351 -29.975143 38,975 237 462 0
2019-09-21 21:57:37 GMT 37.025600 -29.952253 38,975 237 462 0
2019-09-21 21:57:26 GMT 37.038803 -29.927576 38,975 237 462 0
2019-09-21 21:57:17 GMT 37.049904 -29.906876 38,975 237 462 0
2019-09-21 21:57:06 GMT 37.062607 -29.883045 38,975 237 463 -64
2019-09-21 21:56:54 GMT 37.076485 -29.856958 39,000 237 463 -64
2019-09-21 21:56:23 GMT 37.113956 -29.786444 38,800 237 463 1216
2019-09-21 21:56:13 GMT 37.125504 -29.764769 38,575 237 465 1536
2019-09-21 21:56:01 GMT 37.140106 -29.737362 38,250 237 469 1664
2019-09-21 21:55:53 GMT 37.148987 -29.720589 38,050 237 471 1728
2019-09-21 21:55:42 GMT 37.163269 -29.693707 37,700 237 474 1792
2019-09-21 21:55:32 GMT 37.174801 -29.671864 37,450 237 478 1152
2019-09-21 21:55:05 GMT 37.207947 -29.609324 36,950 237 479 1088
2019-09-21 21:55:01 GMT 37.213161 -29.599377 36,875 237 478 1152
2019-09-21 21:54:51 GMT 37.225021 -29.576948 36,700 237 478 1088
2019-09-21 21:54:41 GMT 37.237137 -29.554058 36,525 237 478 1088
2019-09-21 21:54:30 GMT 37.250309 -29.529100 36,325 237 477 1152
2019-09-21 21:54:14 GMT 37.270615 -29.490519 36,025 237 477 1152
2019-09-21 21:54:03 GMT 37.283642 -29.465811 35,825 237 477 1152
2019-09-21 21:53:55 GMT 37.293274 -29.447567 35,675 237 477 1216
2019-09-21 21:53:46 GMT 37.304443 -29.426296 35,475 237 477 1344
2019-09-21 21:53:33 GMT 37.320282 -29.396257 35,200 237 478 1472
2019-09-21 21:52:56 GMT 37.364731 -29.311934 34,300 237 480 1600
2019-09-21 21:52:23 GMT 37.405609 -29.233784 33,350 237 483 1984
2019-09-21 21:52:16 GMT 37.414173 -29.217304 33,150 237 483 1984
2019-09-21 21:51:54 GMT 37.441956 -29.164143 32,400 237 490 1984
2019-09-21 21:51:44 GMT 37.453125 -29.142696 32,125 237 491 1536
2019-09-21 21:51:31 GMT 37.469894 -29.110544 31,875 237 489 1216
2019-09-21 21:51:22 GMT 37.481068 -29.089170 31,700 237 488 1216
2019-09-21 21:51:11 GMT 37.494781 -29.062813 31,475 237 487 1280
2019-09-21 21:51:01 GMT 37.507324 -29.038677 31,275 237 486 1280
2019-09-21 21:50:53 GMT 37.516663 -29.020737 31,125 237 483 1280
2019-09-21 21:50:42 GMT 37.530396 -28.994381 30,875 237 483 1536
2019-09-21 21:50:32 GMT 37.542519 -28.971127 30,650 237 482 1408
2019-09-21 21:50:22 GMT 37.554062 -28.948799 30,425 237 482 1408
2019-09-21 21:50:12 GMT 37.566925 -28.923964 30,200 237 480 1536
2019-09-21 21:50:01 GMT 37.579559 -28.899652 29,950 238 479 1408
2019-09-21 21:49:51 GMT 37.592331 -28.874874 29,725 238 477 1280
2019-09-21 21:49:40 GMT 37.604992 -28.850456 29,500 238 475 1408
2019-09-21 21:49:29 GMT 37.618240 -28.824736 29,275 237 473 1344
2019-09-21 21:49:20 GMT 37.629684 -28.802528 29,050 238 472 1216
2019-09-21 21:49:09 GMT 37.642044 -28.778627 28,875 237 469 1152
2019-09-21 21:48:59 GMT 37.654358 -28.754902 28,675 237 466 1216
2019-09-21 21:48:49 GMT 37.666206 -28.731995 28,500 238 463 896
2019-09-21 21:48:38 GMT 37.678619 -28.707861 28,375 238 459 704
2019-09-21 21:48:28 GMT 37.689995 -28.685720 28,250 238 452 704
2019-09-21 21:48:17 GMT 37.702286 -28.661898 28,150 238 449 768
2019-09-21 21:48:07 GMT 37.713970 -28.639208 28,000 238 444 832
2019-09-21 21:47:57 GMT 37.725174 -28.617338 27,825 238 440 1280
2019-09-21 21:47:47 GMT 37.736618 -28.595016 27,700 238 436 256
2019-09-21 21:47:36 GMT 37.747971 -28.572868 27,650 238 432 384
2019-09-21 21:47:25 GMT 37.759369 -28.550486 27,550 238 428 768
2019-09-21 21:47:15 GMT 37.770538 -28.528688 27,300 238 427 2752
2019-09-21 21:47:05 GMT 37.781937 -28.506536 26,725 238 436 3712
2019-09-21 21:46:54 GMT 37.793289 -28.484219 26,250 238 444 1856
2019-09-21 21:46:44 GMT 37.804459 -28.462421 26,075 238 444 1088
2019-09-21 21:46:34 GMT 37.816196 -28.439543 25,900 238 444 896
2019-09-21 21:46:24 GMT 37.827278 -28.417810 25,750 238 442 1024
2019-09-21 21:46:13 GMT 37.839195 -28.394403 25,575 238 440 1152
2019-09-21 21:45:59 GMT 37.854420 -28.364491 25,275 238 440 1472
2019-09-21 21:45:52 GMT 37.862045 -28.349518 25,150 238 440 896
2019-09-21 21:45:42 GMT 37.872944 -28.328129 25,000 238 438 1088
2019-09-21 21:45:31 GMT 37.885422 -28.303528 24,800 238 438 1088
2019-09-21 21:45:21 GMT 37.896240 -28.282255 24,625 238 437 1152
2019-09-21 21:45:11 GMT 37.906952 -28.261219 24,450 238 436 1280
2019-09-21 21:45:00 GMT 37.919079 -28.237431 24,225 238 436 1088
2019-09-21 21:44:50 GMT 37.930206 -28.215576 24,050 238 434 1152
2019-09-21 21:44:40 GMT 37.941101 -28.193956 23,875 238 433 1344
2019-09-21 21:44:30 GMT 37.951851 -28.172827 23,675 238 433 1152
2019-09-21 21:44:19 GMT 37.963348 -28.150257 23,475 238 432 1216
2019-09-21 21:44:08 GMT 37.975296 -28.126577 23,275 238 432 1152
2019-09-21 21:43:58 GMT 37.986160 -28.105118 23,075 238 430 1216
2019-09-21 21:43:48 GMT 37.996914 -28.083921 22,875 238 429 1216
2019-09-21 21:43:38 GMT 38.007576 -28.062723 22,700 238 428 1152
2019-09-21 21:43:28 GMT 38.018555 -28.040966 22,500 238 426 1216
2019-09-21 21:43:17 GMT 38.030411 -28.017416 22,275 238 425 1216
2019-09-21 21:43:07 GMT 38.040859 -27.996628 22,075 238 424 1344
2019-09-21 21:42:57 GMT 38.051613 -27.975311 21,875 238 422 1408
2019-09-21 21:42:46 GMT 38.062683 -27.953367 21,650 238 422 1280
2019-09-21 21:42:35 GMT 38.074036 -27.930868 21,425 238 420 1408
2019-09-21 21:42:25 GMT 38.085297 -27.908428 21,175 238 420 1408
2019-09-21 21:42:15 GMT 38.095505 -27.888035 20,950 238 419 1600
2019-09-21 21:42:04 GMT 38.106308 -27.866470 20,675 238 419 1664
2019-09-21 21:41:52 GMT 38.118805 -27.841576 20,375 238 419 1664
2019-09-21 21:41:42 GMT 38.129074 -27.821026 20,125 238 418 1408
2019-09-21 21:41:30 GMT 38.141556 -27.796053 19,850 238 416 1536
2019-09-21 21:41:22 GMT 38.150024 -27.779163 19,650 238 415 1600
2019-09-21 21:41:12 GMT 38.160553 -27.758244 19,375 238 413 1600
2019-09-21 21:41:01 GMT 38.171814 -27.735744 19,100 238 412 1664
2019-09-21 21:40:52 GMT 38.181198 -27.716928 18,850 238 411 1728
2019-09-21 21:40:41 GMT 38.192001 -27.695307 18,575 238 410 1664
2019-09-21 21:40:30 GMT 38.203094 -27.673128 18,300 238 408 1536
2019-09-21 21:40:21 GMT 38.212509 -27.654341 18,075 238 407 1600
2019-09-21 21:40:11 GMT 38.222878 -27.633541 17,800 238 405 1728
2019-09-21 21:40:00 GMT 38.233200 -27.612850 17,550 238 404 1344
2019-09-21 21:39:50 GMT 38.243546 -27.592047 17,350 238 400 1408
2019-09-21 21:39:39 GMT 38.253929 -27.571264 17,125 238 397 1408
2019-09-21 21:39:29 GMT 38.263939 -27.551144 16,875 238 395 1728
2019-09-21 21:39:18 GMT 38.274410 -27.530006 16,575 238 393 1664
2019-09-21 21:39:08 GMT 38.284466 -27.509706 16,300 238 390 1664
2019-09-21 21:38:58 GMT 38.294056 -27.490301 16,025 238 389 1792
2019-09-21 21:38:47 GMT 38.304291 -27.469620 15,750 238 386 1728
2019-09-21 21:38:37 GMT 38.313889 -27.450176 15,450 239 385 1792
2019-09-21 21:38:26 GMT 38.324268 -27.429100 15,150 238 383 1856
2019-09-21 21:38:17 GMT 38.333267 -27.411007 14,850 238 383 2240
2019-09-21 21:38:06 GMT 38.343704 -27.390085 14,475 238 382 2048
2019-09-21 21:37:55 GMT 38.353729 -27.369925 14,150 238 380 1984
2019-09-21 21:37:45 GMT 38.362766 -27.351540 13,850 239 379 1984
2019-09-21 21:37:35 GMT 38.372314 -27.332056 13,525 239 378 1984
2019-09-21 21:37:25 GMT 38.381790 -27.312830 13,200 238 376 2048
2019-09-21 21:37:14 GMT 38.391491 -27.293083 12,875 238 375 1792
2019-09-21 21:37:04 GMT 38.401154 -27.273500 12,575 239 373 2048
2019-09-21 21:36:53 GMT 38.410950 -27.253557 12,225 238 372 1984
2019-09-21 21:36:42 GMT 38.420864 -27.233643 11,925 238 370 1664
2019-09-21 21:36:32 GMT 38.430130 -27.214905 11,725 238 365 1152
2019-09-21 21:36:23 GMT 38.438740 -27.197571 11,575 238 359 768
2019-09-21 21:36:12 GMT 38.448074 -27.178623 11,450 238 349 768
2019-09-21 21:36:01 GMT 38.457092 -27.160294 11,300 238 341 960
2019-09-21 21:35:51 GMT 38.465378 -27.143456 11,150 239 333 1024
2019-09-21 21:35:41 GMT 38.473801 -27.126259 11,000 239 323 960
2019-09-21 21:35:30 GMT 38.482037 -27.109436 10,850 239 315 896
2019-09-21 21:35:20 GMT 38.490005 -27.093061 10,700 239 305 960
2019-09-21 21:34:52 GMT 38.510155 -27.051697 10,325 238 280 1472
2019-09-21 21:34:49 GMT 38.512108 -27.047791 10,250 238 278 2368
2019-09-21 21:34:34 GMT 38.522324 -27.027203 9,600 238 277 2624
2019-09-21 21:34:24 GMT 38.529144 -27.013290 9,175 238 277 2624
2019-09-21 21:34:18 GMT 38.533150 -27.005188 8,925 238 276 2688
2019-09-21 21:34:08 GMT 38.540314 -26.990662 8,475 238 276 2496
2019-09-21 21:33:57 GMT 38.547535 -26.975952 8,075 239 272 2240
2019-09-21 21:33:45 GMT 38.555420 -26.959076 7,600 238 269 2624
2019-09-21 21:33:36 GMT 38.561825 -26.947449 7,225 228 271 2688
2019-09-21 21:33:19 GMT 38.578949 -26.931849 6,550 211 275 2560
2019-09-21 21:33:16 GMT 38.582794 -26.929998 6,400 196 278 2688
2019-09-21 21:33:05 GMT 38.596893 -26.927311 5,950 177 283 2368
2019-09-21 21:32:54 GMT 38.610855 -26.930355 5,550 158 284 2432
2019-09-21 21:32:44 GMT 38.622578 -26.937439 5,175 147 281 1984
2019-09-21 21:32:34 GMT 38.632912 -26.947327 4,825 138 276 2496
2019-09-21 21:32:24 GMT 38.642826 -26.958618 4,375 138 274 2880
2019-09-21 21:32:13 GMT 38.652969 -26.970121 3,875 138 273 2944
2019-09-21 21:32:02 GMT 38.663315 -26.981943 3,350 138 271 2816
2019-09-21 21:31:50 GMT 38.674480 -26.994568 2,875 138 269 2816
2019-09-21 21:31:42 GMT 38.681931 -27.002991 2,500 138 266 1984
2019-09-21 21:31:31 GMT 38.691753 -27.014099 2,225 138 255 1280
We lost coverage of the aircraft here for a total of 199 minutes
2019-09-21 18:13:01 GMT 38.694397 -27.020336 1,625 321 141 -768
2019-09-21 18:12:48 GMT 38.687393 -27.012993 1,800 321 142 -832
2019-09-21 18:12:35 GMT 38.680672 -27.005981 1,975 321 142 -832
2019-09-21 18:12:30 GMT 38.678284 -27.003498 2,025 321 141 -704
2019-09-21 18:12:20 GMT 38.673477 -26.998425 2,150 321 139 -960
2019-09-21 18:12:11 GMT 38.668663 -26.993469 2,275 322 141 -832
2019-09-21 18:12:00 GMT 38.663269 -26.987856 2,425 321 140 -832
2019-09-21 18:11:50 GMT 38.658051 -26.982422 2,550 321 142 -768
2019-09-21 18:11:34 GMT 38.649719 -26.973644 2,800 321 145 -896
2019-09-21 18:11:27 GMT 38.646503 -26.970215 2,875 321 144 -320
2019-09-21 18:11:18 GMT 38.641617 -26.965105 2,875 321 142 0
2019-09-21 18:10:52 GMT 38.627556 -26.952393 2,875 344 150 -128
2019-09-21 18:10:45 GMT 38.622623 -26.951111 2,875 353 152 -64
2019-09-21 18:10:36 GMT 38.616394 -26.950239 2,875 354 152 -192
2019-09-21 18:10:26 GMT 38.609310 -26.949280 2,900 354 150 -64
2019-09-21 18:10:15 GMT 38.601746 -26.948269 2,950 355 149 -576
2019-09-21 18:10:05 GMT 38.594742 -26.947372 3,050 355 148 -640
2019-09-21 18:09:55 GMT 38.588127 -26.946594 3,125 6 151 -1024
2019-09-21 18:09:30 GMT 38.570763 -26.945190 3,350 6 151 -1024
2019-09-21 18:09:23 GMT 38.566341 -26.945251 3,475 6 151 -1024
2019-09-21 18:09:14 GMT 38.559448 -26.946419 3,625 13 152 -1088
2019-09-21 18:09:03 GMT 38.552444 -26.948866 3,800 15 153 -1024
2019-09-21 18:08:53 GMT 38.545204 -26.951416 3,975 15 155 -1024
2019-09-21 18:08:42 GMT 38.537521 -26.954121 4,150 15 156 -1024
2019-09-21 18:08:32 GMT 38.530914 -26.956543 4,300 16 158 -1088
2019-09-21 18:08:22 GMT 38.523560 -26.959290 4,475 16 158 -1024
2019-09-21 18:08:12 GMT 38.516235 -26.962061 4,650 16 161 -1088
2019-09-21 18:08:01 GMT 38.508804 -26.964966 4,825 16 165 -960
2019-09-21 18:07:50 GMT 38.500332 -26.968323 5,000 18 172 -1024
2019-09-21 18:07:39 GMT 38.491745 -26.972391 5,175 25 178 -1024
2019-09-21 18:07:28 GMT 38.484467 -26.978243 5,350 40 180 -960
2019-09-21 18:07:19 GMT 38.479065 -26.984871 5,475 44 185 -960
2019-09-21 18:06:58 GMT 38.465740 -27.001831 5,800 45 196 -896
2019-09-21 18:06:46 GMT 38.458237 -27.011440 5,975 44 204 -832
2019-09-21 18:06:28 GMT 38.445831 -27.027023 6,175 44 206 -512
2019-09-21 18:06:12 GMT 38.434273 -27.041260 6,300 43 224 -640
2019-09-21 18:06:07 GMT 38.430687 -27.045715 6,350 43 229 -576
2019-09-21 18:05:56 GMT 38.422310 -27.055908 6,475 43 244 -1088
2019-09-21 18:05:46 GMT 38.413513 -27.066610 6,625 43 257 -896
2019-09-21 18:05:35 GMT 38.404247 -27.077894 6,750 43 272 -768
2019-09-21 18:05:25 GMT 38.394745 -27.089247 6,875 43 287 -768
2019-09-21 18:05:15 GMT 38.384171 -27.101870 7,000 43 305 -832
2019-09-21 18:05:04 GMT 38.373413 -27.114725 7,125 43 324 -896
2019-09-21 18:04:54 GMT 38.361374 -27.129126 7,275 43 345 -1152
2019-09-21 18:04:43 GMT 38.348942 -27.143932 7,500 43 366 -1856
2019-09-21 18:04:33 GMT 38.336197 -27.159197 7,925 43 382 -3392
2019-09-21 18:04:23 GMT 38.322830 -27.175150 8,575 43 394 -4608
2019-09-21 18:04:12 GMT 38.308720 -27.192059 9,450 43 403 -6208
2019-09-21 18:04:02 GMT 38.294769 -27.208986 10,525 43 404 -6976
2019-09-21 18:03:51 GMT 38.280350 -27.226986 11,725 45 405 -6592
2019-09-21 18:03:41 GMT 38.267166 -27.244692 12,775 48 407 -6464
2019-09-21 18:03:31 GMT 38.254578 -27.263273 13,775 50 412 -5760
2019-09-21 18:03:20 GMT 38.241165 -27.283611 14,500 49 425 -3392
2019-09-21 18:03:10 GMT 38.227890 -27.303480 15,100 49 423 -4224
2019-09-21 18:02:59 GMT 38.215073 -27.322823 15,700 50 420 -2880
2019-09-21 18:02:49 GMT 38.201752 -27.342983 15,975 50 426 -192
2019-09-21 18:02:38 GMT 38.188244 -27.363361 15,975 50 437 -64
2019-09-21 18:02:28 GMT 38.174973 -27.383364 16,000 49 443 -576
2019-09-21 18:02:18 GMT 38.160645 -27.404812 16,150 49 443 -1344
2019-09-21 18:02:07 GMT 38.147141 -27.425032 16,400 49 442 -1856
2019-09-21 18:01:57 GMT 38.133316 -27.445660 16,750 49 444 -2560
2019-09-21 18:01:39 GMT 38.109695 -27.480780 17,525 49 449 -2752
2019-09-21 18:01:36 GMT 38.105801 -27.486599 17,650 49 450 -2752
2019-09-21 18:01:26 GMT 38.091183 -27.508392 18,125 49 454 -2688
2019-09-21 18:01:15 GMT 38.077309 -27.529112 18,525 49 456 -2496
2019-09-21 18:01:05 GMT 38.063393 -27.550070 18,925 49 460 -2624
2019-09-21 18:00:54 GMT 38.047935 -27.573296 19,375 49 464 -2560
2019-09-21 18:00:44 GMT 38.034439 -27.593508 19,750 49 469 -2368
2019-09-21 18:00:34 GMT 38.019676 -27.615568 20,175 49 471 -2816
2019-09-21 18:00:24 GMT 38.005051 -27.637218 20,600 49 474 -2752
2019-09-21 18:00:13 GMT 37.990219 -27.659250 21,050 49 477 -2496
2019-09-21 18:00:03 GMT 37.975204 -27.681456 21,375 49 483 -1856
2019-09-21 17:59:52 GMT 37.960136 -27.703817 21,700 49 490 -2496
2019-09-21 17:59:42 GMT 37.944775 -27.726566 22,150 49 494 -2816
2019-09-21 17:59:32 GMT 37.929474 -27.749245 22,600 49 497 -2944
2019-09-21 17:59:21 GMT 37.913589 -27.772795 23,025 49 502 -2240
2019-09-21 17:59:11 GMT 37.897945 -27.795828 23,425 49 506 -3008
2019-09-21 17:59:01 GMT 37.882278 -27.819078 23,900 49 508 -2944
2019-09-21 17:58:49 GMT 37.865387 -27.843971 24,400 49 512 -2880
2019-09-21 17:58:39 GMT 37.849808 -27.867001 24,875 49 514 -3008
2019-09-21 17:58:29 GMT 37.834072 -27.890287 25,325 49 514 -2944
2019-09-21 17:58:19 GMT 37.818466 -27.913397 25,800 49 516 -2944
2019-09-21 17:58:08 GMT 37.801208 -27.938950 26,300 49 520 -2880
2019-09-21 17:57:57 GMT 37.784409 -27.963711 26,750 49 524 -2880
2019-09-21 17:57:47 GMT 37.768570 -27.986971 27,200 49 526 -3008
2019-09-21 17:57:37 GMT 37.752045 -28.011221 27,675 49 526 -2944
2019-09-21 17:57:26 GMT 37.734879 -28.036467 28,175 49 529 -2752
2019-09-21 17:57:16 GMT 37.718628 -28.060427 28,600 49 531 -2560
2019-09-21 17:57:09 GMT 37.706131 -28.078775 28,900 49 532 -2176
2019-09-21 17:57:06 GMT 37.702145 -28.084698 28,975 49 531 -2240
2019-09-21 17:56:58 GMT 37.689716 -28.103027 29,275 49 529 -2176
2019-09-21 17:56:55 GMT 37.685715 -28.108871 29,325 49 529 -2240
2019-09-21 17:56:44 GMT 37.667698 -28.135269 29,750 49 527 -2432
2019-09-21 17:56:34 GMT 37.652252 -28.157843 30,150 49 525 -2624
2019-09-21 17:56:24 GMT 37.635818 -28.181976 30,575 49 523 -2816
2019-09-21 17:56:17 GMT 37.623917 -28.199509 30,925 49 520 -3136
2019-09-21 17:56:13 GMT 37.619202 -28.206404 31,075 49 519 -3200
2019-09-21 17:56:03 GMT 37.603500 -28.229549 31,600 49 516 -3392
2019-09-21 17:55:56 GMT 37.591118 -28.247761 32,025 49 512 -3584
2019-09-21 17:55:52 GMT 37.586334 -28.254732 32,200 49 511 -3648
2019-09-21 17:55:46 GMT 37.575531 -28.270510 32,625 49 508 -3840
2019-09-21 17:55:42 GMT 37.571274 -28.276764 32,800 49 506 -4032
2019-09-21 17:55:34 GMT 37.557972 -28.296124 33,375 49 502 -4480
2019-09-21 17:55:31 GMT 37.554199 -28.301659 33,575 49 499 -4608
2019-09-21 17:55:21 GMT 37.539677 -28.322933 34,275 49 494 -4352
2019-09-21 17:55:15 GMT 37.530579 -28.336195 34,675 49 492 -3840
2019-09-21 17:55:11 GMT 37.524353 -28.345253 34,925 49 491 -3392
2019-09-21 17:55:06 GMT 37.514725 -28.359295 35,250 49 489 -3392
2019-09-21 17:55:01 GMT 37.508816 -28.367893 35,475 49 489 -3392
2019-09-21 17:54:55 GMT 37.499969 -28.380850 35,800 49 487 -3392
2019-09-21 17:54:50 GMT 37.493450 -28.390284 36,050 49 487 -3328
2019-09-21 17:54:45 GMT 37.484932 -28.402702 36,350 49 487 -3328
2019-09-21 17:54:40 GMT 37.478184 -28.412556 36,600 49 485 -3328
2019-09-21 17:54:34 GMT 37.468643 -28.426422 36,950 49 484 -3328
2019-09-21 17:54:29 GMT 37.462914 -28.434708 37,150 49 484 -3328
2019-09-21 17:54:24 GMT 37.454395 -28.447006 37,475 49 483 -3328
2019-09-21 17:54:18 GMT 37.446808 -28.457993 37,750 48 481 -3328
2019-09-21 17:54:14 GMT 37.439896 -28.467915 38,000 48 480 -3328
2019-09-21 17:54:07 GMT 37.429859 -28.482414 38,375 48 479 -3200
2019-09-21 17:53:57 GMT 37.415405 -28.503210 38,825 49 480 -2240
2019-09-21 17:53:46 GMT 37.398788 -28.527287 39,150 49 484 -1216
2019-09-21 17:53:37 GMT 37.385788 -28.546045 39,275 49 489 -512
2019-09-21 17:53:26 GMT 37.370228 -28.568632 39,375 49 492 -832
2019-09-21 17:53:16 GMT 37.355003 -28.590784 39,525 49 495 -704
2019-09-21 17:53:08 GMT 37.342110 -28.609472 39,600 49 498 -512
2019-09-21 17:53:03 GMT 37.334106 -28.621021 39,650 49 498 -448
2019-09-21 17:52:55 GMT 37.323071 -28.636999 39,700 48 499 -512
2019-09-21 17:52:52 GMT 37.318680 -28.643286 39,700 48 500 -512
2019-09-21 17:52:45 GMT 37.307850 -28.658852 39,775 48 501 -576
2019-09-21 17:52:42 GMT 37.303436 -28.665199 39,800 48 501 -576
2019-09-21 17:52:32 GMT 37.288239 -28.687115 39,875 49 501 -512
2019-09-21 17:52:22 GMT 37.273087 -28.709028 39,950 49 501 -256
2019-09-21 17:52:12 GMT 37.257710 -28.731159 39,975 49 501 -128
2019-09-21 17:52:00 GMT 37.238983 -28.758175 39,975 49 501 -64
2019-09-21 17:51:51 GMT 37.225731 -28.777193 40,000 49 501 -64
2019-09-21 17:51:40 GMT 37.209904 -28.800062 40,000 49 502 -64
2019-09-21 17:51:32 GMT 37.196449 -28.819347 40,000 49 503 -64
2019-09-21 17:51:21 GMT 37.180435 -28.842384 39,975 48 503 -64
2019-09-21 17:51:11 GMT 37.164375 -28.865442 39,975 48 503 -64
2019-09-21 17:51:00 GMT 37.148254 -28.888491 40,000 48 504 -64
2019-09-21 17:50:50 GMT 37.132645 -28.910873 40,000 48 503 -64
2019-09-21 17:50:39 GMT 37.116394 -28.934132 40,000 48 503 0
2019-09-21 17:50:28 GMT 37.099667 -28.957991 39,975 48 503 -64
2019-09-21 17:50:00 GMT 37.055954 -29.020445 40,000 48 502 -64
2019-09-21 17:49:57 GMT 37.051208 -29.027164 39,975 48 502 -64
2019-09-21 17:49:39 GMT 37.024437 -29.065346 39,975 48 501 -64
2019-09-21 17:49:36 GMT 37.019073 -29.072981 40,000 48 501 -64
2019-09-21 17:49:26 GMT 37.004700 -29.093433 39,975 48 502 -64
2019-09-21 17:49:16 GMT 36.989410 -29.115290 40,000 48 502 -64
2019-09-21 17:49:05 GMT 36.972244 -29.139715 40,000 48 503 -64
2019-09-21 17:48:55 GMT 36.956425 -29.162132 40,000 48 503 -64
2019-09-21 17:48:45 GMT 36.941063 -29.183928 39,975 48 503 -64
2019-09-21 17:48:35 GMT 36.925598 -29.205868 39,975 48 502 -64
2019-09-21 17:48:23 GMT 36.907471 -29.231581 39,975 48 503 -64
2019-09-21 17:48:14 GMT 36.893967 -29.250690 40,000 48 502 -64
2019-09-21 17:48:04 GMT 36.877846 -29.273489 39,975 48 503 -64
2019-09-21 17:47:53 GMT 36.861694 -29.296329 39,975 48 502 -64
2019-09-21 17:47:43 GMT 36.846039 -29.318504 40,000 48 502 -64
2019-09-21 17:47:33 GMT 36.830223 -29.340858 39,975 48 502 -64
2019-09-21 17:47:22 GMT 36.813766 -29.364052 39,975 48 502 -64
2019-09-21 17:47:12 GMT 36.798111 -29.386196 40,000 48 502 -64
2019-09-21 17:47:01 GMT 36.781670 -29.409407 40,000 48 502 -64
2019-09-21 17:46:51 GMT 36.765839 -29.431686 40,000 48 501 0
2019-09-21 17:46:40 GMT 36.749081 -29.455280 39,975 48 501 0
2019-09-21 17:46:28 GMT 36.731415 -29.480152 39,975 48 502 -64
2019-09-21 17:46:18 GMT 36.715889 -29.502031 40,000 48 502 -64
2019-09-21 17:46:09 GMT 36.701134 -29.522778 40,000 48 503 -64
2019-09-21 17:45:47 GMT 36.668106 -29.569302 40,000 48 502 -64
2019-09-21 17:45:28 GMT 36.638054 -29.611427 40,000 48 502 -64
2019-09-21 17:45:17 GMT 36.621277 -29.634933 40,000 48 502 -64
2019-09-21 17:45:06 GMT 36.605419 -29.657185 40,000 48 502 0
2019-09-21 17:44:54 GMT 36.586166 -29.684086 40,000 48 501 -64
2019-09-21 17:44:37 GMT 36.560944 -29.719448 40,000 48 501 -64
2019-09-21 17:44:33 GMT 36.554306 -29.728653 40,000 48 501 -64
2019-09-21 17:44:22 GMT 36.537315 -29.752321 39,975 48 502 -64
2019-09-21 17:44:08 GMT 36.515434 -29.782825 40,000 48 501 0
2019-09-21 17:43:42 GMT 36.475754 -29.838066 39,975 48 502 0
2019-09-21 17:43:32 GMT 36.460327 -29.859524 40,000 48 502 -64
2019-09-21 17:43:21 GMT 36.442429 -29.884415 40,000 48 501 0
2019-09-21 17:43:04 GMT 36.416199 -29.920864 40,000 48 502 -64
2019-09-21 17:43:01 GMT 36.411438 -29.927519 39,975 48 502 0
2019-09-21 17:42:50 GMT 36.395378 -29.949841 40,000 48 502 0
2019-09-21 17:42:40 GMT 36.379074 -29.972420 39,975 48 503 -64
2019-09-21 17:42:30 GMT 36.363281 -29.994335 40,000 48 502 -64
2019-09-21 17:42:19 GMT 36.347012 -30.016869 40,000 48 504 0
2019-09-21 17:41:53 GMT 36.306473 -30.072899 39,975 48 504 0
2019-09-21 17:41:48 GMT 36.298370 -30.084057 39,975 48 503 -64
2019-09-21 17:41:37 GMT 36.282394 -30.106161 39,975 48 503 -64
2019-09-21 17:41:26 GMT 36.264816 -30.130405 40,000 48 503 0
2019-09-21 17:41:16 GMT 36.249847 -30.151005 40,000 48 504 -64
2019-09-21 17:41:03 GMT 36.228699 -30.180187 39,975 48 505 -64
2019-09-21 17:40:54 GMT 36.215607 -30.198269 39,975 48 505 -64
2019-09-21 17:40:41 GMT 36.194832 -30.226894 40,000 48 504 -64
2019-09-21 17:40:33 GMT 36.182190 -30.244274 40,000 48 505 -64
2019-09-21 17:40:21 GMT 36.162991 -30.270664 40,000 48 505 0
2019-09-21 17:40:13 GMT 36.151245 -30.286732 40,000 48 505 0
2019-09-21 17:40:03 GMT 36.135475 -30.308416 39,975 48 505 0
2019-09-21 17:39:52 GMT 36.117508 -30.333080 39,975 48 505 -64
2019-09-21 17:39:42 GMT 36.102814 -30.353165 39,975 48 504 -64
2019-09-21 17:39:32 GMT 36.087204 -30.374565 40,000 48 504 -64
2019-09-21 17:39:15 GMT 36.060745 -30.410786 40,000 48 502 0
2019-09-21 17:39:07 GMT 36.048294 -30.427837 40,000 48 502 -64
2019-09-21 17:37:34 GMT 35.902451 -30.626736 39,975 47 506 0
2019-09-21 17:36:39 GMT 35.815197 -30.745064 39,975 47 509 -64
2019-09-21 17:36:29 GMT 35.800301 -30.765224 40,000 47 509 -64
2019-09-21 17:35:54 GMT 35.745182 -30.839792 40,000 47 509 -64
2019-09-21 17:35:49 GMT 35.736012 -30.852240 40,000 47 509 -64
2019-09-21 17:34:55 GMT 35.650589 -30.967302 40,000 47 510 -64
2019-09-21 17:34:45 GMT 35.635162 -30.988026 40,000 47 510 -64
2019-09-21 17:34:41 GMT 35.628010 -30.997690 39,975 47 510 0
2019-09-21 17:34:20 GMT 35.595062 -31.041927 39,975 47 511 -64
We lost coverage of the aircraft here for a total of 141 minutes
2019-09-21 15:13:30 GMT 33.320892 -27.962292 39,975 247 459 0
2019-09-21 15:13:23 GMT 33.327538 -27.944454 39,975 247 459 0
2019-09-21 15:13:12 GMT 33.337097 -27.918787 39,975 247 459 0
2019-09-21 15:12:26 GMT 33.376282 -27.813152 39,975 247 458 0
2019-09-21 15:12:10 GMT 33.390518 -27.774647 39,975 247 460 0
2019-09-21 15:11:37 GMT 33.418396 -27.699335 39,975 247 460 0
2019-09-21 15:11:28 GMT 33.426556 -27.677195 40,000 247 460 0
2019-09-21 15:11:13 GMT 33.438675 -27.644348 40,000 247 460 0
2019-09-21 15:10:35 GMT 33.471664 -27.554665 39,975 247 460 0
2019-09-21 15:07:45 GMT 33.617432 -27.155682 40,000 247 464 128
2019-09-21 15:07:35 GMT 33.626080 -27.131939 39,975 247 464 128
2019-09-21 15:07:03 GMT 33.654190 -27.054281 39,700 247 464 704
2019-09-21 15:06:54 GMT 33.662296 -27.031860 39,575 247 464 768
2019-09-21 15:06:23 GMT 33.687836 -26.961123 39,175 247 466 768
2019-09-21 15:06:12 GMT 33.697906 -26.933151 39,050 247 466 640
2019-09-21 15:05:29 GMT 33.734264 -26.832275 38,975 247 467 0
2019-09-21 15:05:20 GMT 33.741348 -26.812582 38,975 247 467 0
2019-09-21 15:05:12 GMT 33.747986 -26.793974 38,975 247 467 -64
2019-09-21 15:05:02 GMT 33.756611 -26.769962 39,000 247 467 0
2019-09-21 15:04:51 GMT 33.765610 -26.744984 39,000 247 467 -64
2019-09-21 15:03:58 GMT 33.811169 -26.617527 39,000 247 464 0
2019-09-21 15:03:37 GMT 33.829330 -26.566624 38,975 247 464 0
2019-09-21 15:03:30 GMT 33.835419 -26.549583 39,000 247 464 0
2019-09-21 15:03:20 GMT 33.842964 -26.528492 39,000 247 464 0
2019-09-21 15:03:10 GMT 33.851852 -26.503565 38,975 247 465 0
2019-09-21 15:02:59 GMT 33.860886 -26.478195 39,000 247 465 -64
2019-09-21 15:02:49 GMT 33.869499 -26.453934 38,975 248 466 0
2019-09-21 15:02:39 GMT 33.877853 -26.430359 38,975 248 466 -64
2019-09-21 15:02:29 GMT 33.886211 -26.406841 38,975 247 466 0
2019-09-21 15:02:17 GMT 33.896175 -26.378746 39,000 248 466 0
2019-09-21 15:02:08 GMT 33.903763 -26.357346 39,000 248 466 0
2019-09-21 15:01:32 GMT 33.933655 -26.272852 38,975 248 464 0
2019-09-21 15:01:22 GMT 33.942448 -26.247883 38,975 248 464 0
2019-09-21 15:00:57 GMT 33.963409 -26.188604 39,000 248 464 -64
2019-09-21 15:00:39 GMT 33.978653 -26.145330 39,000 248 464 0
2019-09-21 15:00:35 GMT 33.983086 -26.132698 39,000 248 464 0
2019-09-21 15:00:13 GMT 34.000683 -26.082687 38,975 248 465 -64
2019-09-21 15:00:02 GMT 34.009899 -26.056423 39,000 248 465 0
2019-09-21 14:59:55 GMT 34.016605 -26.037312 39,000 248 466 -64
2019-09-21 14:59:48 GMT 34.021118 -26.024437 39,000 248 466 0
2019-09-21 14:59:43 GMT 34.026333 -26.009617 38,975 248 466 0
2019-09-21 14:59:27 GMT 34.039368 -25.972309 38,975 248 467 0
2019-09-21 14:59:24 GMT 34.041695 -25.965557 38,975 248 467 0
2019-09-21 14:59:21 GMT 34.044071 -25.958862 38,975 248 467 -64
2019-09-21 14:59:08 GMT 34.054779 -25.928192 39,000 248 468 -64
2019-09-21 14:58:59 GMT 34.062504 -25.906048 39,000 248 468 -64
2019-09-21 14:58:54 GMT 34.067207 -25.892601 39,000 248 469 0
2019-09-21 14:58:29 GMT 34.087967 -25.833006 39,000 248 471 0
2019-09-21 14:58:15 GMT 34.099468 -25.799847 39,000 248 471 0
2019-09-21 14:58:06 GMT 34.107147 -25.777794 39,000 248 471 0
2019-09-21 14:57:57 GMT 34.114178 -25.757675 39,000 248 472 0
2019-09-21 14:57:53 GMT 34.118317 -25.745787 39,000 248 472 0
2019-09-21 14:57:47 GMT 34.123116 -25.731983 38,975 248 472 0
2019-09-21 14:57:37 GMT 34.131638 -25.707447 39,000 248 473 0
2019-09-21 14:57:26 GMT 34.140526 -25.681915 39,000 248 473 0
2019-09-21 14:57:16 GMT 34.149536 -25.655878 38,975 248 473 -64
2019-09-21 14:57:05 GMT 34.158218 -25.630817 39,000 248 473 0
2019-09-21 14:56:55 GMT 34.166885 -25.605768 38,975 248 473 -64
2019-09-21 14:56:45 GMT 34.175629 -25.580433 39,000 248 473 -64
2019-09-21 14:56:39 GMT 34.180161 -25.567316 39,000 248 473 0
2019-09-21 14:56:34 GMT 34.184238 -25.555401 39,000 248 472 0
2019-09-21 14:56:29 GMT 34.189224 -25.541082 38,975 248 472 0
2019-09-21 14:56:24 GMT 34.193207 -25.529425 39,000 248 472 0
2019-09-21 14:56:21 GMT 34.195908 -25.521633 39,000 248 472 0
2019-09-21 14:56:11 GMT 34.204468 -25.496914 39,000 248 471 0
2019-09-21 14:56:03 GMT 34.210403 -25.479641 38,975 248 471 0
2019-09-21 14:55:59 GMT 34.213753 -25.469971 38,975 248 471 0
2019-09-21 14:55:50 GMT 34.221542 -25.447363 38,975 248 472 0
2019-09-21 14:55:42 GMT 34.227814 -25.429173 38,975 248 471 0
2019-09-21 14:55:38 GMT 34.231674 -25.418015 39,000 248 471 -64
2019-09-21 14:55:32 GMT 34.236656 -25.403423 38,975 248 471 -64
2019-09-21 14:55:19 GMT 34.246853 -25.373783 39,000 248 471 -64
2019-09-21 14:55:11 GMT 34.253815 -25.353586 39,000 248 471 -64
2019-09-21 14:54:59 GMT 34.264481 -25.322477 39,000 248 471 0
2019-09-21 14:54:48 GMT 34.272877 -25.297909 39,000 248 471 0
2019-09-21 14:54:39 GMT 34.282185 -25.270672 39,000 248 471 0
2019-09-21 14:54:30 GMT 34.288330 -25.252647 39,000 248 471 -64
2019-09-21 14:54:26 GMT 34.291901 -25.242210 38,975 248 471 0
2019-09-21 14:54:19 GMT 34.297268 -25.226440 39,000 248 470 -64
2019-09-21 14:54:16 GMT 34.299820 -25.218891 39,000 248 470 0
2019-09-21 14:54:08 GMT 34.305882 -25.201206 39,000 248 469 -64
2019-09-21 14:54:02 GMT 34.311768 -25.183971 39,000 248 469 0
2019-09-21 14:53:58 GMT 34.315144 -25.174084 38,975 248 469 0
2019-09-21 14:53:46 GMT 34.324593 -25.146446 38,975 248 469 0
2019-09-21 14:53:36 GMT 34.332882 -25.122242 38,975 248 469 0
2019-09-21 14:53:26 GMT 34.341076 -25.098038 39,000 248 469 0
2019-09-21 14:53:16 GMT 34.349396 -25.073603 38,975 248 469 -64
2019-09-21 14:53:06 GMT 34.357452 -25.049892 39,000 248 469 0
2019-09-21 14:52:55 GMT 34.366516 -25.023268 38,975 248 468 0
2019-09-21 14:52:46 GMT 34.374638 -24.999332 38,975 248 467 0
2019-09-21 14:52:35 GMT 34.383343 -24.973698 39,000 248 467 0
2019-09-21 14:52:24 GMT 34.391724 -24.949036 39,000 248 466 0
2019-09-21 14:52:14 GMT 34.400299 -24.923719 38,975 248 466 0
2019-09-21 14:52:03 GMT 34.408630 -24.899055 39,000 248 466 0
2019-09-21 14:51:52 GMT 34.417603 -24.872541 38,975 248 466 0
2019-09-21 14:51:44 GMT 34.424606 -24.851748 38,975 248 466 0
2019-09-21 14:51:40 GMT 34.427536 -24.843060 38,975 248 466 0
2019-09-21 14:51:32 GMT 34.434082 -24.823776 38,975 248 466 -64
2019-09-21 14:51:23 GMT 34.442326 -24.799347 39,000 248 466 0
2019-09-21 14:51:18 GMT 34.445663 -24.789473 38,975 248 466 0
2019-09-21 14:51:11 GMT 34.451477 -24.772039 39,000 248 467 0
2019-09-21 14:51:01 GMT 34.459690 -24.747677 39,000 248 466 0
2019-09-21 14:50:51 GMT 34.467911 -24.723274 39,000 248 466 -64
2019-09-21 14:50:40 GMT 34.476334 -24.698162 38,975 248 466 0
2019-09-21 14:50:29 GMT 34.485199 -24.671803 38,975 248 466 0
2019-09-21 14:50:15 GMT 34.496513 -24.638042 39,000 248 465 0
2019-09-21 14:50:09 GMT 34.502007 -24.621620 39,000 248 465 0
2019-09-21 14:49:58 GMT 34.510666 -24.595810 39,000 248 465 0
2019-09-21 14:49:48 GMT 34.518997 -24.570980 39,000 249 464 -64
2019-09-21 14:49:37 GMT 34.527603 -24.545195 38,975 249 464 0
2019-09-21 14:49:29 GMT 34.535019 -24.522999 39,000 249 464 0
2019-09-21 14:49:26 GMT 34.536034 -24.519882 38,975 249 464 0
2019-09-21 14:49:16 GMT 34.544739 -24.493847 39,000 249 464 0
2019-09-21 14:49:05 GMT 34.553307 -24.468327 39,000 249 464 0
2019-09-21 14:48:55 GMT 34.561638 -24.443264 39,000 249 464 0
2019-09-21 14:48:44 GMT 34.570084 -24.417955 39,000 249 464 0
2019-09-21 14:48:33 GMT 34.579056 -24.390938 39,000 249 464 0
2019-09-21 14:48:29 GMT 34.582901 -24.379391 39,000 249 463 0
2019-09-21 14:48:23 GMT 34.587250 -24.366386 38,975 249 463 0
2019-09-21 14:48:02 GMT 34.603813 -24.316521 38,975 249 463 0
2019-09-21 14:47:47 GMT 34.616226 -24.279169 38,975 249 463 0
2019-09-21 14:47:41 GMT 34.620434 -24.266396 38,975 249 463 0
2019-09-21 14:47:30 GMT 34.629456 -24.239147 39,000 249 463 0
2019-09-21 14:47:19 GMT 34.638519 -24.211681 38,975 249 463 -64
2019-09-21 14:47:09 GMT 34.645943 -24.189262 38,975 249 463 0
2019-09-21 14:46:59 GMT 34.653809 -24.165438 39,000 249 463 -64
2019-09-21 14:46:49 GMT 34.662189 -24.140110 39,000 249 462 -64
2019-09-21 14:46:38 GMT 34.670654 -24.114319 39,000 249 462 0
2019-09-21 14:46:26 GMT 34.680763 -24.083748 39,000 249 463 0
2019-09-21 14:46:17 GMT 34.687748 -24.062576 38,975 249 461 0
2019-09-21 14:46:07 GMT 34.695602 -24.038704 38,975 249 461 0
2019-09-21 14:45:57 GMT 34.703659 -24.014208 39,000 249 461 64
2019-09-21 14:45:46 GMT 34.712036 -23.988705 38,975 249 461 0
2019-09-21 14:45:36 GMT 34.720009 -23.964386 39,000 249 461 -64
2019-09-21 14:45:25 GMT 34.728561 -23.938145 38,975 249 461 0
2019-09-21 14:45:14 GMT 34.737000 -23.912430 38,975 249 461 0
2019-09-21 14:45:04 GMT 34.745193 -23.887424 38,975 249 460 0
2019-09-21 14:44:54 GMT 34.753281 -23.862698 38,975 249 460 0
2019-09-21 14:44:42 GMT 34.762207 -23.835342 39,000 249 460 -64
2019-09-21 14:44:33 GMT 34.769634 -23.812580 39,000 249 459 0
2019-09-21 14:44:23 GMT 34.777542 -23.788427 39,000 249 458 0
2019-09-21 14:44:12 GMT 34.785881 -23.762798 38,975 249 457 0
2019-09-21 14:43:59 GMT 34.795761 -23.732431 39,000 249 457 0
2019-09-21 14:43:51 GMT 34.802307 -23.712364 39,000 249 457 0
2019-09-21 14:43:41 GMT 34.809906 -23.688934 39,000 249 457 0
2019-09-21 14:43:30 GMT 34.818283 -23.663149 39,000 249 456 0
2019-09-21 14:43:23 GMT 34.823914 -23.645782 39,000 249 457 0
2019-09-21 14:43:20 GMT 34.826103 -23.639088 38,975 249 457 0
2019-09-21 14:40:55 GMT 34.937988 -23.292360 39,000 249 454 0
2019-09-21 14:40:47 GMT 34.944157 -23.273106 39,000 249 454 0
2019-09-21 14:40:44 GMT 34.946438 -23.265953 39,000 249 454 0
2019-09-21 14:40:41 GMT 34.950211 -23.254301 39,000 249 454 0
2019-09-21 14:40:29 GMT 34.957565 -23.231220 39,000 249 453 0
2019-09-21 14:40:19 GMT 34.965546 -23.206320 39,000 249 452 0
2019-09-21 14:40:09 GMT 34.972553 -23.184242 39,000 249 451 0
2019-09-21 14:39:59 GMT 34.980328 -23.160095 38,975 249 451 0
2019-09-21 14:39:49 GMT 34.988335 -23.134975 39,000 249 451 -64
2019-09-21 14:39:38 GMT 34.996445 -23.109686 38,975 249 451 0
2019-09-21 14:39:29 GMT 35.003326 -23.088112 38,975 249 451 -64
2019-09-21 14:38:24 GMT 35.051926 -22.934933 39,000 249 449 -64
2019-09-21 14:36:59 GMT 35.115005 -22.735310 39,000 250 447 0
2019-09-21 14:36:55 GMT 35.118496 -22.724247 39,000 249 447 -64
2019-09-21 14:36:44 GMT 35.126827 -22.697926 39,000 249 447 0
2019-09-21 14:34:26 GMT 35.231804 -22.375410 38,975 246 450 0
2019-09-21 14:34:20 GMT 35.238510 -22.357635 39,000 246 450 0
2019-09-21 14:34:11 GMT 35.244965 -22.340584 39,000 246 449 0
2019-09-21 14:33:34 GMT 35.277798 -22.253391 38,975 246 447 -64
2019-09-21 14:33:03 GMT 35.305916 -22.178415 39,000 246 447 0
2019-09-21 14:32:58 GMT 35.309280 -22.169495 39,000 246 447 0
2019-09-21 14:32:48 GMT 35.316833 -22.149239 39,000 246 446 0
2019-09-21 14:31:53 GMT 35.365311 -22.019863 38,975 246 443 0
2019-09-21 14:30:16 GMT 35.446335 -21.802254 39,000 246 442 0
2019-09-21 14:29:37 GMT 35.479935 -21.711559 39,000 246 441 0
2019-09-21 14:29:34 GMT 35.481373 -21.707699 39,000 246 441 0
2019-09-21 14:29:20 GMT 35.493149 -21.675793 39,000 246 441 0
2019-09-21 14:27:41 GMT 35.575592 -21.451859 39,000 246 440 0
2019-09-21 14:27:29 GMT 35.586227 -21.422939 38,975 246 440 0
2019-09-21 14:26:46 GMT 35.621979 -21.325150 39,000 246 438 0
2019-09-21 14:26:37 GMT 35.628983 -21.306095 39,000 246 438 64
2019-09-21 14:25:19 GMT 35.693604 -21.128462 38,975 247 437 0
2019-09-21 14:25:13 GMT 35.698212 -21.115723 38,975 247 437 64
2019-09-21 14:25:02 GMT 35.707428 -21.090302 38,975 247 437 0
2019-09-21 14:24:53 GMT 35.715015 -21.069441 39,000 247 437 0
2019-09-21 14:24:41 GMT 35.724888 -21.042208 39,000 247 438 -64
2019-09-21 14:24:32 GMT 35.732288 -21.021696 38,975 247 438 0
2019-09-21 14:24:22 GMT 35.740898 -20.998030 39,000 247 438 0
2019-09-21 14:24:07 GMT 35.752911 -20.964720 39,000 247 439 0
2019-09-21 14:24:01 GMT 35.758030 -20.950636 38,975 247 438 0
2019-09-21 14:23:50 GMT 35.766632 -20.926666 38,975 247 438 0
2019-09-21 14:23:40 GMT 35.775009 -20.903435 39,000 247 438 0
2019-09-21 14:23:25 GMT 35.787323 -20.869274 38,975 247 438 0
We lost coverage of the aircraft here for a total of 49 minutes
2019-09-21 13:34:01 GMT 38.193100 -14.098673 38,000 256 437 -64
2019-09-21 13:33:52 GMT 38.198345 -14.073665 37,975 256 436 -64
2019-09-21 13:33:31 GMT 38.208435 -14.025392 37,975 256 436 -64
2019-09-21 13:30:20 GMT 38.306721 -13.550382 37,975 256 435 0
2019-09-21 13:30:15 GMT 38.309097 -13.538721 38,000 256 436 0
2019-09-21 13:29:19 GMT 38.337677 -13.398424 37,975 256 436 0
2019-09-21 13:28:48 GMT 38.353367 -13.321401 38,000 256 436 -64
2019-09-21 13:28:32 GMT 38.361324 -13.281694 38,000 256 434 -64
2019-09-21 13:28:14 GMT 38.369980 -13.238818 37,975 256 434 -64
2019-09-21 13:28:08 GMT 38.373428 -13.221747 38,000 256 434 -64
2019-09-21 13:27:52 GMT 38.381390 -13.182579 38,000 256 434 0
2019-09-21 13:27:45 GMT 38.384491 -13.166997 37,975 256 435 -64
2019-09-21 13:27:40 GMT 38.387020 -13.154337 37,975 256 434 0
2019-09-21 13:27:22 GMT 38.395889 -13.110020 38,000 256 435 0
2019-09-21 13:27:15 GMT 38.399918 -13.089684 37,975 256 435 0
2019-09-21 13:27:03 GMT 38.405411 -13.062147 37,975 256 435 0
2019-09-21 13:26:52 GMT 38.410904 -13.034920 38,000 256 435 -64
2019-09-21 13:26:36 GMT 38.419006 -12.994378 38,000 256 436 -64
2019-09-21 13:26:28 GMT 38.422821 -12.975159 38,000 256 437 0
2019-09-21 13:26:20 GMT 38.426834 -12.954971 37,975 256 437 -64
2019-09-21 13:26:01 GMT 38.436367 -12.906921 37,975 256 435 0
2019-09-21 13:25:50 GMT 38.442047 -12.878052 38,000 256 435 -64
2019-09-21 13:25:39 GMT 38.447021 -12.852989 38,000 256 434 -64
2019-09-21 13:25:22 GMT 38.455582 -12.809820 38,000 256 435 0
2019-09-21 13:25:18 GMT 38.457222 -12.801636 38,000 256 435 -64
2019-09-21 13:25:08 GMT 38.462017 -12.777283 38,000 256 436 -64
2019-09-21 13:24:58 GMT 38.467117 -12.751186 37,975 257 434 0
2019-09-21 13:24:40 GMT 38.475723 -12.707480 37,975 256 435 0
2019-09-21 13:24:36 GMT 38.482452 -12.673207 38,000 257 434 0
2019-09-21 13:24:27 GMT 38.482452 -12.673207 37,975 257 434 -64
2019-09-21 13:24:20 GMT 38.485619 -12.657043 38,000 257 434 0
2019-09-21 13:24:14 GMT 38.488644 -12.641663 38,000 257 434 -64
2019-09-21 13:24:10 GMT 38.490829 -12.630456 38,000 257 434 -64
2019-09-21 13:24:06 GMT 38.493019 -12.619263 38,000 257 434 -64
2019-09-21 13:23:53 GMT 38.499073 -12.588440 38,000 256 436 0
2019-09-21 13:23:43 GMT 38.504147 -12.562561 38,000 257 435 -64
2019-09-21 13:23:34 GMT 38.508152 -12.542114 37,975 257 435 0
2019-09-21 13:23:28 GMT 38.511063 -12.526922 38,000 257 435 0
2019-09-21 13:23:24 GMT 38.513489 -12.514502 37,975 257 435 0
2019-09-21 13:23:17 GMT 38.516342 -12.499817 37,975 257 435 0
2019-09-21 13:23:11 GMT 38.519230 -12.484863 38,000 257 435 -64
2019-09-21 13:23:06 GMT 38.521500 -12.473125 38,000 257 435 -64
2019-09-21 13:23:02 GMT 38.523880 -12.460646 37,975 257 435 -64
2019-09-21 13:22:57 GMT 38.526123 -12.449241 37,975 257 435 -64
2019-09-21 13:22:51 GMT 38.529053 -12.434021 38,000 257 435 -64
2019-09-21 13:22:47 GMT 38.531525 -12.421298 38,000 257 435 -64
2019-09-21 13:22:39 GMT 38.534500 -12.406067 38,000 257 435 -64
2019-09-21 13:22:36 GMT 38.536221 -12.397095 38,000 257 435 0
2019-09-21 13:22:29 GMT 38.539295 -12.381165 37,975 257 435 -64
2019-09-21 13:22:25 GMT 38.541183 -12.371441 37,975 257 435 0
2019-09-21 13:22:20 GMT 38.543995 -12.356750 38,000 257 435 0
2019-09-21 13:22:11 GMT 38.548138 -12.335266 38,000 257 436 -64
2019-09-21 13:22:08 GMT 38.549397 -12.328796 37,975 257 436 -64
2019-09-21 13:22:00 GMT 38.553726 -12.306274 38,000 257 436 0
2019-09-21 13:21:48 GMT 38.559265 -12.277580 38,000 257 436 -64
2019-09-21 13:21:43 GMT 38.561733 -12.264771 37,975 257 436 0
2019-09-21 13:21:38 GMT 38.563732 -12.254272 37,975 257 436 -64
2019-09-21 13:21:33 GMT 38.566433 -12.240295 37,975 257 436 -64
2019-09-21 13:21:29 GMT 38.568787 -12.228022 37,975 257 436 0
2019-09-21 13:21:23 GMT 38.571556 -12.213806 38,000 257 437 -64
2019-09-21 13:21:17 GMT 38.574142 -12.200019 38,000 257 437 0
2019-09-21 13:21:11 GMT 38.576817 -12.186279 37,975 257 437 0
2019-09-21 13:21:06 GMT 38.579132 -12.173986 37,975 257 437 0
2019-09-21 13:21:01 GMT 38.581936 -12.159180 37,975 257 437 -64
2019-09-21 13:20:55 GMT 38.584396 -12.146460 37,975 257 437 0
2019-09-21 13:20:50 GMT 38.586823 -12.133667 37,975 257 437 0
2019-09-21 13:20:45 GMT 38.589478 -12.119890 38,000 257 437 -64
2019-09-21 13:20:41 GMT 38.591572 -12.109131 37,975 257 437 -64
2019-09-21 13:20:36 GMT 38.596573 -12.082811 38,000 257 437 0
2019-09-21 13:20:31 GMT 38.596573 -12.082811 37,975 257 437 -64
2019-09-21 13:20:25 GMT 38.599209 -12.069031 37,975 257 437 0
2019-09-21 13:20:20 GMT 38.601582 -12.056519 37,975 257 437 0
2019-09-21 13:20:15 GMT 38.604141 -12.042969 38,000 257 437 -64
2019-09-21 13:20:09 GMT 38.606518 -12.030457 38,000 257 437 -64
2019-09-21 13:20:03 GMT 38.609299 -12.015699 38,000 257 437 0
2019-09-21 13:20:00 GMT 38.610844 -12.007446 38,000 257 437 0
2019-09-21 13:19:53 GMT 38.614243 -11.989380 37,975 257 437 -64
2019-09-21 13:19:50 GMT 38.615616 -11.982143 37,975 257 437 0
2019-09-21 13:19:42 GMT 38.619503 -11.961853 38,000 257 436 0
2019-09-21 13:19:35 GMT 38.622482 -11.946079 38,000 257 436 0
2019-09-21 13:19:32 GMT 38.624313 -11.936586 37,975 257 437 0
2019-09-21 13:19:24 GMT 38.628628 -11.913818 37,975 257 436 0
2019-09-21 13:19:21 GMT 38.629280 -11.910278 37,975 257 436 -64
2019-09-21 13:19:18 GMT 38.630905 -11.901537 38,000 257 436 0
2019-09-21 13:19:15 GMT 38.632050 -11.895506 38,000 257 435 0
2019-09-21 13:19:11 GMT 38.634167 -11.884277 38,000 257 436 0
2019-09-21 13:19:08 GMT 38.635891 -11.875244 38,000 257 436 0
2019-09-21 13:19:05 GMT 38.636765 -11.870489 38,000 257 436 0
2019-09-21 13:19:00 GMT 38.639008 -11.858765 38,000 257 436 0
2019-09-21 13:18:55 GMT 38.641617 -11.844727 38,000 257 436 0
2019-09-21 13:18:49 GMT 38.644318 -11.830484 38,000 257 435 0
2019-09-21 13:18:44 GMT 38.646652 -11.818005 37,975 257 435 0
2019-09-21 13:18:40 GMT 38.649250 -11.804260 37,975 257 435 0
2019-09-21 13:18:34 GMT 38.651321 -11.792987 38,000 257 435 0
2019-09-21 13:18:30 GMT 38.653427 -11.782001 38,000 257 435 0
2019-09-21 13:18:27 GMT 38.654526 -11.776030 38,000 257 435 0
2019-09-21 13:18:24 GMT 38.656185 -11.767273 38,000 257 435 0
2019-09-21 13:18:19 GMT 38.658981 -11.752258 38,000 257 436 -64
2019-09-21 13:18:13 GMT 38.661167 -11.740784 37,975 257 436 0
2019-09-21 13:18:07 GMT 38.664322 -11.724024 38,000 257 435 -64
2019-09-21 13:18:03 GMT 38.666061 -11.714531 38,000 257 435 0
2019-09-21 13:17:57 GMT 38.668663 -11.700806 37,975 257 435 0
2019-09-21 13:17:53 GMT 38.670803 -11.689270 37,975 257 435 0
2019-09-21 13:17:48 GMT 38.672882 -11.678049 37,975 257 435 -64
2019-09-21 13:17:45 GMT 38.674202 -11.670776 37,975 257 435 -64
2019-09-21 13:17:42 GMT 38.675598 -11.663269 37,975 257 436 -64
2019-09-21 13:17:37 GMT 38.678391 -11.648315 38,000 257 435 0
2019-09-21 13:17:30 GMT 38.681187 -11.633301 38,000 257 435 -64
2019-09-21 13:17:25 GMT 38.683960 -11.618520 37,975 257 435 -64
2019-09-21 13:17:22 GMT 38.685375 -11.610779 38,000 257 435 -64
2019-09-21 13:17:16 GMT 38.688354 -11.594727 37,975 257 435 0
2019-09-21 13:17:09 GMT 38.690960 -11.580750 37,975 257 435 0
2019-09-21 13:17:05 GMT 38.693069 -11.569439 38,000 257 435 0
2019-09-21 13:17:00 GMT 38.695431 -11.556702 37,975 257 436 0
2019-09-21 13:16:54 GMT 38.697922 -11.543407 38,000 257 436 0
2019-09-21 13:16:51 GMT 38.699570 -11.534391 38,000 257 436 -64
2019-09-21 13:16:43 GMT 38.703140 -11.515344 38,000 257 436 -64
2019-09-21 13:16:40 GMT 38.704742 -11.506531 38,000 257 436 -64
2019-09-21 13:16:37 GMT 38.705933 -11.500297 38,000 257 436 -64
2019-09-21 13:16:32 GMT 38.708679 -11.485251 38,000 257 436 -64
2019-09-21 13:16:28 GMT 38.710236 -11.476712 38,000 257 436 -64
2019-09-21 13:16:22 GMT 38.712753 -11.463159 38,000 257 436 -64
2019-09-21 13:16:18 GMT 38.714859 -11.451635 38,000 257 435 0
2019-09-21 13:16:10 GMT 38.718521 -11.431573 37,975 257 435 0
2019-09-21 13:16:06 GMT 38.720444 -11.421064 37,975 257 435 0
2019-09-21 13:16:02 GMT 38.722618 -11.409302 38,000 257 435 0
2019-09-21 13:15:59 GMT 38.724335 -11.400047 37,975 257 435 -64
2019-09-21 13:15:56 GMT 38.725388 -11.394554 38,000 257 435 0
2019-09-21 13:15:53 GMT 38.726395 -11.389061 38,000 257 435 0
2019-09-21 13:15:49 GMT 38.728577 -11.377258 38,000 257 435 -64
2019-09-21 13:15:46 GMT 38.729782 -11.370551 37,975 257 435 0
2019-09-21 13:15:38 GMT 38.733215 -11.351982 37,975 257 435 0
2019-09-21 13:15:35 GMT 38.734814 -11.343262 37,975 257 435 0
2019-09-21 13:15:31 GMT 38.736443 -11.334229 38,000 257 435 0
2019-09-21 13:15:27 GMT 38.738159 -11.324994 38,000 257 435 0
2019-09-21 13:15:21 GMT 38.740906 -11.310007 37,975 257 435 0
2019-09-21 13:15:18 GMT 38.742645 -11.300454 37,975 257 435 -64
2019-09-21 13:15:11 GMT 38.745667 -11.283974 38,000 257 435 0
2019-09-21 13:15:07 GMT 38.747223 -11.275436 38,000 257 435 0
2019-09-21 13:15:04 GMT 38.749058 -11.265198 38,000 257 434 -64
2019-09-21 13:15:00 GMT 38.750473 -11.257464 37,975 257 435 0
2019-09-21 13:14:56 GMT 38.752178 -11.248169 38,000 257 434 -64
2019-09-21 13:14:53 GMT 38.753994 -11.238159 38,000 257 434 -64
2019-09-21 13:14:48 GMT 38.756321 -11.225647 38,000 257 434 0
2019-09-21 13:14:44 GMT 38.757797 -11.217399 38,000 257 434 -64
2019-09-21 13:14:39 GMT 38.760086 -11.204920 37,975 257 434 0
2019-09-21 13:14:34 GMT 38.762325 -11.192627 37,975 257 434 -64
2019-09-21 13:14:31 GMT 38.764023 -11.183425 37,975 257 434 -64
2019-09-21 13:14:28 GMT 38.765579 -11.174887 38,000 257 434 -64
2019-09-21 13:14:22 GMT 38.768326 -11.159900 37,975 257 434 -64
2019-09-21 13:14:19 GMT 38.769699 -11.152377 38,000 257 434 -64
2019-09-21 13:14:14 GMT 38.771450 -11.142639 38,000 257 434 -64
2019-09-21 13:14:11 GMT 38.773220 -11.133118 38,000 257 434 -64
2019-09-21 13:14:07 GMT 38.774849 -11.124146 38,000 257 434 -64
2019-09-21 13:14:04 GMT 38.776154 -11.116850 38,000 257 434 -64
2019-09-21 13:14:01 GMT 38.777920 -11.107117 38,000 257 434 -64
2019-09-21 13:13:55 GMT 38.780712 -11.091614 38,000 258 433 -64
2019-09-21 13:13:47 GMT 38.783924 -11.073608 38,000 258 433 -64
2019-09-21 13:13:44 GMT 38.785183 -11.066650 37,975 258 433 0
2019-09-21 13:13:39 GMT 38.787556 -11.053650 37,975 258 433 0
2019-09-21 13:13:35 GMT 38.789791 -11.041138 37,975 258 433 0
2019-09-21 13:13:28 GMT 38.792213 -11.027649 37,975 258 433 0
2019-09-21 13:13:22 GMT 38.795059 -11.011883 38,000 258 433 -64
2019-09-21 13:13:18 GMT 38.796844 -11.001852 38,000 258 433 -64
2019-09-21 13:13:13 GMT 38.799240 -10.988647 37,975 258 433 -64
2019-09-21 13:13:08 GMT 38.801926 -10.973849 37,975 258 433 0
2019-09-21 13:13:03 GMT 38.803711 -10.963878 38,000 258 433 0
2019-09-21 13:12:54 GMT 38.808041 -10.939575 38,000 258 433 -64
2019-09-21 13:12:51 GMT 38.808975 -10.934322 38,000 258 433 0
2019-09-21 13:12:45 GMT 38.811630 -10.919335 37,975 258 433 0
2019-09-21 13:12:42 GMT 38.813690 -10.907871 37,975 258 433 -64
2019-09-21 13:12:39 GMT 38.814465 -10.903625 37,975 258 433 -64
2019-09-21 13:12:35 GMT 38.815907 -10.895630 37,975 258 433 -64
2019-09-21 13:12:31 GMT 38.817909 -10.884583 37,975 258 433 -64
2019-09-21 13:12:24 GMT 38.821106 -10.866852 38,000 258 433 0
2019-09-21 13:12:20 GMT 38.822800 -10.857358 38,000 258 433 -64
2019-09-21 13:12:15 GMT 38.825638 -10.841356 37,975 258 433 0
2019-09-21 13:12:12 GMT 38.826599 -10.835863 37,975 258 433 0
2019-09-21 13:12:09 GMT 38.827927 -10.828340 38,000 258 433 0
2019-09-21 13:12:03 GMT 38.832062 -10.805115 37,975 258 433 -64
2019-09-21 13:11:59 GMT 38.832062 -10.805115 37,975 258 433 0
2019-09-21 13:11:54 GMT 38.836624 -10.779602 38,000 258 433 0
2019-09-21 13:11:49 GMT 38.836624 -10.779602 38,000 258 433 -64
2019-09-21 13:11:41 GMT 38.840813 -10.756104 37,975 258 433 -64
2019-09-21 13:11:37 GMT 38.842163 -10.748596 38,000 258 433 -64
2019-09-21 13:11:32 GMT 38.845917 -10.727373 37,975 258 433 0
2019-09-21 13:11:29 GMT 38.845917 -10.727373 37,975 258 433 -64
2019-09-21 13:11:18 GMT 38.850681 -10.700562 38,000 258 433 0
2019-09-21 13:11:10 GMT 38.855438 -10.673815 37,975 258 433 -64
2019-09-21 13:10:56 GMT 38.863770 -10.626705 38,000 258 433 0
2019-09-21 13:10:48 GMT 38.863770 -10.626705 38,000 258 433 -64
2019-09-21 13:10:45 GMT 38.865280 -10.618226 37,975 258 433 -64
2019-09-21 13:10:37 GMT 38.868790 -10.598450 37,975 258 433 0
2019-09-21 13:10:34 GMT 38.869907 -10.591919 37,975 258 433 0
2019-09-21 13:10:27 GMT 38.873383 -10.572191 37,975 258 433 0
2019-09-21 13:10:24 GMT 38.874561 -10.565430 37,975 258 433 0
2019-09-21 13:10:16 GMT 38.878052 -10.545681 38,000 258 432 -64
2019-09-21 13:10:13 GMT 38.879311 -10.538391 38,000 258 432 -64
2019-09-21 13:10:05 GMT 38.882942 -10.517944 38,000 258 432 -64
2019-09-21 13:10:02 GMT 38.884460 -10.509139 38,000 258 432 -64
2019-09-21 13:09:55 GMT 38.889786 -10.478943 37,975 258 432 -64
2019-09-21 13:09:45 GMT 38.891880 -10.466919 38,000 258 432 0
2019-09-21 13:09:42 GMT 38.893387 -10.458208 37,975 258 432 -64
2019-09-21 13:09:34 GMT 38.896488 -10.440430 38,000 258 432 0
2019-09-21 13:09:31 GMT 38.897781 -10.433190 38,000 258 432 -64
2019-09-21 13:09:24 GMT 38.900539 -10.417480 38,000 258 432 0
2019-09-21 13:09:21 GMT 38.902313 -10.407217 37,975 258 432 0
2019-09-21 13:09:13 GMT 38.905846 -10.386963 38,000 258 432 -64
2019-09-21 13:09:09 GMT 38.907383 -10.377991 38,000 258 432 -64
2019-09-21 13:09:02 GMT 38.910324 -10.361242 38,000 258 432 -64
2019-09-21 13:08:59 GMT 38.911789 -10.352763 38,000 258 432 -64
2019-09-21 13:08:55 GMT 38.913853 -10.341064 38,000 258 432 -64
2019-09-21 13:08:52 GMT 38.914993 -10.334313 38,000 258 432 0
2019-09-21 13:08:48 GMT 38.916229 -10.327328 38,000 258 432 0
2019-09-21 13:08:44 GMT 38.918152 -10.316341 38,000 258 431 0
2019-09-21 13:08:41 GMT 38.919250 -10.309833 38,000 258 431 0
2019-09-21 13:08:38 GMT 38.920853 -10.300817 38,000 258 431 -64
2019-09-21 13:08:34 GMT 38.922791 -10.289612 37,975 258 431 0
2019-09-21 13:08:30 GMT 38.924095 -10.282104 37,975 258 431 0
2019-09-21 13:08:27 GMT 38.925911 -10.271667 38,000 258 431 -64
2019-09-21 13:08:23 GMT 38.927353 -10.263380 37,975 258 431 -64
2019-09-21 13:08:20 GMT 38.928703 -10.255676 38,000 258 432 -64
2019-09-21 13:08:16 GMT 38.930191 -10.246900 38,000 258 432 -64
2019-09-21 13:08:12 GMT 38.931931 -10.236929 38,000 258 432 -64
2019-09-21 13:08:09 GMT 38.933453 -10.228210 38,000 258 432 -64
2019-09-21 13:08:06 GMT 38.935043 -10.218957 37,975 258 432 0
2019-09-21 13:08:02 GMT 38.936050 -10.212926 37,975 258 433 -64
2019-09-21 13:07:58 GMT 38.938107 -10.201172 38,000 258 432 0
2019-09-21 13:07:55 GMT 38.939411 -10.193665 37,975 258 433 -64
2019-09-21 13:07:52 GMT 38.940666 -10.186157 38,000 258 433 -64
2019-09-21 13:07:45 GMT 38.944065 -10.166626 37,975 258 433 -64
2019-09-21 13:07:41 GMT 38.947540 -10.146352 38,000 258 433 -64
2019-09-21 13:07:37 GMT 38.947540 -10.146352 38,000 258 433 -64
2019-09-21 13:07:34 GMT 38.948349 -10.141602 37,975 258 433 -64
2019-09-21 13:07:31 GMT 38.949783 -10.133335 38,000 258 433 0
2019-09-21 13:07:24 GMT 38.952942 -10.114766 37,975 258 433 -64
2019-09-21 13:07:19 GMT 38.954914 -10.103455 37,975 258 433 0
2019-09-21 13:07:15 GMT 38.956589 -10.093445 38,000 258 433 -64
2019-09-21 13:07:11 GMT 38.960125 -10.072876 37,975 258 433 -64
2019-09-21 13:07:04 GMT 38.961010 -10.067871 38,000 258 433 0
2019-09-21 13:07:01 GMT 38.962601 -10.058580 38,000 258 433 0
2019-09-21 13:06:55 GMT 38.965385 -10.042297 38,000 258 432 0
2019-09-21 13:06:50 GMT 38.967361 -10.030518 37,975 258 432 0
2019-09-21 13:06:44 GMT 38.969715 -10.016724 37,975 258 432 0
2019-09-21 13:06:40 GMT 38.971619 -10.005500 37,975 258 431 0
2019-09-21 13:06:33 GMT 38.974365 -9.989438 37,975 258 431 -64
2019-09-21 13:06:30 GMT 38.979118 -9.961731 38,000 258 432 -64
2019-09-21 13:06:22 GMT 38.979118 -9.961731 38,000 258 432 -64
2019-09-21 13:06:19 GMT 38.980469 -9.953735 37,975 258 431 -64
2019-09-21 13:06:12 GMT 38.983913 -9.933716 38,000 258 431 0
2019-09-21 13:06:09 GMT 38.984711 -9.929013 38,000 258 430 0
2019-09-21 13:06:01 GMT 38.988190 -9.908534 38,000 258 430 0
2019-09-21 13:05:58 GMT 38.989269 -9.902283 38,000 258 430 0
2019-09-21 13:05:51 GMT 38.992481 -9.883301 38,000 258 430 0
2019-09-21 13:05:46 GMT 38.995926 -9.862793 37,975 258 431 -64
2019-09-21 13:05:41 GMT 38.996796 -9.857543 37,975 258 431 -64
2019-09-21 13:05:37 GMT 38.998390 -9.848328 37,975 258 431 -64
2019-09-21 13:05:29 GMT 39.002060 -9.826554 38,000 258 430 -64
2019-09-21 13:05:26 GMT 39.003433 -9.818553 38,000 258 430 -64
2019-09-21 13:05:21 GMT 39.005329 -9.807312 38,000 258 430 -64
2019-09-21 13:05:18 GMT 39.006771 -9.798828 38,000 258 430 -64
2019-09-21 13:05:10 GMT 39.009842 -9.780579 37,975 258 430 0
2019-09-21 13:05:07 GMT 39.011124 -9.773115 37,975 258 430 0
2019-09-21 13:05:03 GMT 39.013824 -9.757113 37,975 258 431 0
2019-09-21 13:05:00 GMT 39.014454 -9.753357 37,975 258 431 0
2019-09-21 13:04:56 GMT 39.015472 -9.747082 37,975 258 431 -64
2019-09-21 13:04:50 GMT 39.018265 -9.730603 38,000 258 431 -64
2019-09-21 13:04:47 GMT 39.019669 -9.722290 38,000 258 431 -64
2019-09-21 13:04:39 GMT 39.024323 -9.694275 38,000 258 432 -64
2019-09-21 13:04:36 GMT 39.024323 -9.694275 37,975 258 432 -64
2019-09-21 13:04:27 GMT 39.027859 -9.673218 38,000 258 432 -64
2019-09-21 13:04:24 GMT 39.028976 -9.666416 38,000 258 432 -64
2019-09-21 13:04:19 GMT 39.031082 -9.653878 38,000 258 432 -64
2019-09-21 13:04:15 GMT 39.033096 -9.641817 37,975 258 432 -64
2019-09-21 13:04:09 GMT 39.035431 -9.627785 38,000 258 432 0
2019-09-21 13:04:06 GMT 39.036983 -9.618469 38,000 258 432 -64
2019-09-21 13:03:59 GMT 39.039684 -9.602478 37,975 258 431 0
2019-09-21 13:03:54 GMT 39.041870 -9.589417 37,975 258 431 64
2019-09-21 13:03:49 GMT 39.043873 -9.577393 37,975 258 431 64
2019-09-21 13:03:43 GMT 39.046692 -9.560613 38,000 258 431 0
2019-09-21 13:03:39 GMT 39.048111 -9.552135 38,000 258 431 -64
2019-09-21 13:03:35 GMT 39.049667 -9.542581 37,975 258 431 -64
2019-09-21 13:03:32 GMT 39.051044 -9.534363 38,000 258 431 -64
2019-09-21 13:03:28 GMT 39.052597 -9.525087 37,975 258 431 0
2019-09-21 13:03:22 GMT 39.056763 -9.500069 37,975 258 430 64
2019-09-21 13:03:18 GMT 39.056763 -9.500069 38,000 258 431 0
2019-09-21 13:03:13 GMT 39.058723 -9.488342 37,975 258 431 0
2019-09-21 13:03:09 GMT 39.060287 -9.479111 37,975 258 431 0
2019-09-21 13:03:06 GMT 39.061707 -9.470573 37,975 258 431 0
2019-09-21 13:03:02 GMT 39.064682 -9.452820 38,000 258 431 0
2019-09-21 13:02:59 GMT 39.064682 -9.452820 38,000 258 431 0
2019-09-21 13:02:56 GMT 39.065964 -9.445018 37,975 258 431 0
2019-09-21 13:02:51 GMT 39.068127 -9.431763 37,975 259 432 0
2019-09-21 13:02:48 GMT 39.069199 -9.425232 37,975 259 432 -64
2019-09-21 13:02:43 GMT 39.071201 -9.413208 38,000 259 432 -64
2019-09-21 13:02:40 GMT 39.072689 -9.404114 38,000 259 433 -64
2019-09-21 13:02:35 GMT 39.074432 -9.393311 38,000 259 433 -64
2019-09-21 13:02:32 GMT 39.075851 -9.384772 37,975 259 433 -64
2019-09-21 13:02:29 GMT 39.077087 -9.377249 37,975 259 433 -64
2019-09-21 13:02:25 GMT 39.078835 -9.366394 38,000 259 433 -64
2019-09-21 13:02:21 GMT 39.081528 -9.350022 38,000 259 434 -64
2019-09-21 13:02:18 GMT 39.081528 -9.350022 38,000 259 434 0
2019-09-21 13:02:14 GMT 39.083073 -9.340698 37,975 259 436 -64
2019-09-21 13:02:11 GMT 39.084419 -9.332642 38,000 259 434 -64
2019-09-21 13:02:08 GMT 39.085922 -9.323273 38,000 259 435 -64
2019-09-21 13:02:04 GMT 39.087570 -9.313182 37,975 259 435 -64
2019-09-21 13:02:01 GMT 39.088703 -9.306335 38,000 259 435 -64
2019-09-21 13:01:57 GMT 39.090611 -9.294739 37,975 259 436 -64
2019-09-21 13:01:50 GMT 39.093124 -9.279480 38,000 259 436 -64
2019-09-21 13:01:45 GMT 39.095222 -9.266846 38,000 259 437 0
2019-09-21 13:01:40 GMT 39.097321 -9.253892 37,975 259 437 0
2019-09-21 13:01:35 GMT 39.099609 -9.240159 37,975 259 437 0
2019-09-21 13:01:29 GMT 39.101852 -9.226426 37,975 259 437 0
2019-09-21 13:01:25 GMT 39.103973 -9.213440 37,975 259 438 0
2019-09-21 13:01:21 GMT 39.105240 -9.205588 37,975 259 438 0
2019-09-21 13:01:18 GMT 39.106300 -9.199219 38,000 259 438 0
2019-09-21 13:01:15 GMT 39.108116 -9.187988 37,975 259 438 0
2019-09-21 13:01:11 GMT 39.109512 -9.179321 37,975 259 438 0
2019-09-21 13:01:07 GMT 39.110870 -9.170957 37,975 259 438 0
2019-09-21 13:01:04 GMT 39.112259 -9.162537 37,975 259 438 0
2019-09-21 13:01:01 GMT 39.114120 -9.151074 37,975 259 438 0
2019-09-21 13:00:56 GMT 39.117378 -9.130981 38,000 259 437 -64
2019-09-21 13:00:53 GMT 39.117378 -9.130981 37,975 259 438 -64
2019-09-21 13:00:48 GMT 39.118961 -9.121338 38,000 259 437 -64
2019-09-21 13:00:43 GMT 39.120895 -9.109338 38,000 259 437 -64
2019-09-21 13:00:40 GMT 39.122360 -9.100464 38,000 259 437 -64
2019-09-21 13:00:37 GMT 39.123665 -9.092346 37,975 259 437 0
2019-09-21 13:00:33 GMT 39.125153 -9.083191 37,975 259 437 0
2019-09-21 13:00:30 GMT 39.126617 -9.074289 37,975 259 437 0
2019-09-21 13:00:25 GMT 39.128632 -9.061571 37,975 259 437 -64
2019-09-21 13:00:22 GMT 39.130833 -9.048157 37,975 259 436 0
2019-09-21 13:00:19 GMT 39.132202 -9.039778 37,975 259 436 0
2019-09-21 13:00:16 GMT 39.132202 -9.039778 38,000 259 436 0
2019-09-21 13:00:12 GMT 39.134045 -9.028320 37,975 259 436 -64
2019-09-21 13:00:09 GMT 39.134995 -9.022522 37,975 259 436 -64
2019-09-21 13:00:05 GMT 39.136654 -9.012085 38,000 259 435 0
2019-09-21 12:59:59 GMT 39.139252 -8.996071 37,975 259 435 0
2019-09-21 12:59:56 GMT 39.140533 -8.987951 37,975 259 436 0
2019-09-21 12:59:51 GMT 39.143543 -8.969421 37,975 259 436 0
2019-09-21 12:59:44 GMT 39.145264 -8.958740 37,975 259 436 0
2019-09-21 12:59:40 GMT 39.146988 -8.948120 38,000 259 436 -64
2019-09-21 12:59:34 GMT 39.149036 -8.935425 38,000 259 436 -64
2019-09-21 12:59:28 GMT 39.151920 -8.917664 38,000 259 435 -64
2019-09-21 12:59:24 GMT 39.153271 -8.908997 38,000 259 435 -64
2019-09-21 12:59:18 GMT 39.156006 -8.892059 38,000 259 434 0
2019-09-21 12:59:12 GMT 39.159348 -8.870803 38,000 259 434 0
2019-09-21 12:59:07 GMT 39.160217 -8.865250 38,000 259 433 64
2019-09-21 12:59:03 GMT 39.161911 -8.854622 38,000 259 433 0
2019-09-21 12:58:58 GMT 39.164165 -8.840759 38,000 259 433 64
2019-09-21 12:58:55 GMT 39.165237 -8.834229 38,000 259 433 64
2019-09-21 12:58:52 GMT 39.166306 -8.827395 38,000 259 432 64
2019-09-21 12:58:46 GMT 39.169098 -8.809998 38,000 259 432 64
2019-09-21 12:58:43 GMT 39.170105 -8.803691 38,000 259 432 64
2019-09-21 12:58:37 GMT 39.172623 -8.788107 38,000 259 432 0
2019-09-21 12:58:34 GMT 39.173710 -8.781250 37,975 259 432 0
2019-09-21 12:58:30 GMT 39.175243 -8.771667 37,975 259 432 0
2019-09-21 12:58:25 GMT 39.176971 -8.760880 37,975 259 432 0
2019-09-21 12:58:22 GMT 39.178783 -8.749512 37,975 259 432 64
2019-09-21 12:58:19 GMT 39.179947 -8.742191 38,000 259 432 64
2019-09-21 12:58:16 GMT 39.181252 -8.733887 38,000 259 432 -64
2019-09-21 12:58:12 GMT 39.182693 -8.725055 38,000 259 433 -64
2019-09-21 12:58:09 GMT 39.184021 -8.716457 38,000 259 433 -64
2019-09-21 12:58:05 GMT 39.185345 -8.708130 38,000 259 432 -64
2019-09-21 12:58:01 GMT 39.186905 -8.698306 38,000 259 432 0
2019-09-21 12:57:58 GMT 39.187908 -8.691956 38,000 259 432 0
2019-09-21 12:57:54 GMT 39.189583 -8.681396 37,975 259 432 0
2019-09-21 12:57:50 GMT 39.190979 -8.672572 37,975 259 432 0
2019-09-21 12:57:46 GMT 39.193130 -8.658958 38,000 259 432 0
2019-09-21 12:57:43 GMT 39.193913 -8.654114 38,000 259 433 0
2019-09-21 12:57:40 GMT 39.195053 -8.646837 38,000 259 433 0
2019-09-21 12:57:33 GMT 39.197983 -8.628149 38,000 259 433 0
2019-09-21 12:57:29 GMT 39.199493 -8.618536 38,000 259 433 0
2019-09-21 12:57:25 GMT 39.201096 -8.608385 37,975 259 434 0
2019-09-21 12:57:22 GMT 39.202244 -8.601074 37,975 259 434 0
2019-09-21 12:57:19 GMT 39.203430 -8.593697 37,975 259 435 0
2019-09-21 12:57:14 GMT 39.205597 -8.579773 37,975 259 435 -64
2019-09-21 12:57:08 GMT 39.209656 -8.554110 37,975 259 436 -64
2019-09-21 12:57:02 GMT 39.211945 -8.539362 37,975 259 436 -64
2019-09-21 12:56:53 GMT 39.213741 -8.527893 38,000 259 437 -64
2019-09-21 12:56:48 GMT 39.215885 -8.514160 38,000 259 437 -64
2019-09-21 12:56:43 GMT 39.217979 -8.500854 38,000 259 438 0
2019-09-21 12:56:40 GMT 39.219040 -8.493984 37,975 259 438 -64
2019-09-21 12:56:37 GMT 39.220230 -8.486282 37,975 259 438 -64
2019-09-21 12:56:33 GMT 39.221798 -8.476318 37,975 259 439 -64
2019-09-21 12:56:30 GMT 39.223053 -8.468140 37,975 259 439 64
2019-09-21 12:56:27 GMT 39.224213 -8.460667 37,975 259 439 64
2019-09-21 12:56:22 GMT 39.226044 -8.448845 37,975 259 440 256
2019-09-21 12:56:19 GMT 39.227757 -8.437805 37,950 259 440 512
2019-09-21 12:56:12 GMT 39.230316 -8.421387 37,800 259 441 1280
2019-09-21 12:56:09 GMT 39.231480 -8.414185 37,825 259 441 1088
2019-09-21 12:56:06 GMT 39.232735 -8.405945 37,825 259 441 1088
2019-09-21 12:56:02 GMT 39.234421 -8.395346 37,675 259 442 1472
2019-09-21 12:55:58 GMT 39.236927 -8.379089 37,550 259 443 1344
2019-09-21 12:55:52 GMT 39.240185 -8.358337 37,450 259 444 1216
2019-09-21 12:55:48 GMT 39.240185 -8.358337 37,375 259 445 1088
2019-09-21 12:55:45 GMT 39.241104 -8.352356 37,350 259 445 960
2019-09-21 12:55:41 GMT 39.244217 -8.332593 37,250 259 445 768
2019-09-21 12:55:37 GMT 39.244217 -8.332593 37,225 259 445 832
2019-09-21 12:55:34 GMT 39.245586 -8.324036 37,200 259 445 768
2019-09-21 12:55:31 GMT 39.248566 -8.305067 37,075 259 444 640
2019-09-21 12:55:27 GMT 39.248566 -8.305067 37,100 259 445 640
2019-09-21 12:55:24 GMT 39.249821 -8.296997 37,050 259 444 640
2019-09-21 12:55:21 GMT 39.251038 -8.288946 37,025 259 444 640
2019-09-21 12:55:16 GMT 39.252869 -8.277004 36,925 259 444 896
2019-09-21 12:55:13 GMT 39.255478 -8.259868 36,925 259 444 896
2019-09-21 12:55:09 GMT 39.255478 -8.259868 36,900 259 444 960
2019-09-21 12:55:05 GMT 39.257172 -8.249001 36,825 259 444 1280
2019-09-21 12:55:02 GMT 39.258362 -8.241239 36,750 259 444 1600
2019-09-21 12:54:58 GMT 39.260056 -8.230312 36,625 259 445 1856
2019-09-21 12:54:54 GMT 39.261978 -8.217833 36,500 259 447 1664
2019-09-21 12:54:51 GMT 39.263275 -8.209167 36,400 259 448 1408
2019-09-21 12:54:48 GMT 39.263832 -8.205505 36,350 259 448 1344
2019-09-21 12:54:45 GMT 39.265823 -8.192696 36,250 259 449 1408
2019-09-21 12:54:42 GMT 39.266647 -8.187442 36,200 259 449 1408
2019-09-21 12:54:38 GMT 39.268070 -8.178223 36,125 259 450 1472
2019-09-21 12:54:33 GMT 39.270264 -8.163797 35,950 259 451 1600
2019-09-21 12:54:30 GMT 39.271515 -8.155579 35,950 259 451 1600
2019-09-21 12:54:27 GMT 39.272507 -8.148989 35,850 259 452 1600
2019-09-21 12:54:24 GMT 39.274155 -8.138421 35,750 259 452 1600
2019-09-21 12:54:21 GMT 39.275005 -8.132874 35,550 259 454 1472
2019-09-21 12:54:17 GMT 39.276497 -8.123352 35,600 259 454 1472
2019-09-21 12:54:14 GMT 39.278450 -8.110596 35,475 259 454 1536
2019-09-21 12:54:11 GMT 39.279243 -8.105286 35,175 259 456 1344
2019-09-21 12:54:05 GMT 39.281479 -8.090654 35,300 259 456 1536
2019-09-21 12:54:02 GMT 39.282898 -8.081579 35,225 259 456 1472
2019-09-21 12:53:59 GMT 39.284084 -8.073853 35,150 259 456 1344
2019-09-21 12:53:55 GMT 39.286037 -8.061035 35,050 259 458 640
2019-09-21 12:53:50 GMT 39.288879 -8.042297 35,000 260 458 192
2019-09-21 12:53:47 GMT 39.288879 -8.042297 35,000 260 457 192
2019-09-21 12:53:42 GMT 39.291252 -8.026794 34,975 259 457 0
2019-09-21 12:53:39 GMT 39.292046 -8.021423 35,000 259 457 64
2019-09-21 12:53:36 GMT 39.293209 -8.013977 35,000 259 457 64
2019-09-21 12:53:33 GMT 39.294708 -8.004077 34,975 259 457 64
2019-09-21 12:53:29 GMT 39.296677 -7.991240 35,000 259 457 -64
2019-09-21 12:53:26 GMT 39.297489 -7.985596 35,000 259 457 0
2019-09-21 12:53:21 GMT 39.299744 -7.970939 35,000 260 457 0
2019-09-21 12:53:18 GMT 39.300751 -7.964233 35,000 259 457 0
2019-09-21 12:53:13 GMT 39.302937 -7.949768 35,000 260 457 0
2019-09-21 12:53:10 GMT 39.305878 -7.930278 35,000 260 457 -64
2019-09-21 12:53:05 GMT 39.305878 -7.930278 35,000 260 457 -64
2019-09-21 12:53:02 GMT 39.308304 -7.914216 35,000 260 457 0
2019-09-21 12:52:55 GMT 39.310104 -7.902222 35,000 260 457 0
2019-09-21 12:52:50 GMT 39.312241 -7.888064 35,000 260 456 0
2019-09-21 12:52:47 GMT 39.313271 -7.881409 34,975 260 456 0
2019-09-21 12:52:43 GMT 39.314529 -7.872864 34,975 260 456 -64
2019-09-21 12:52:40 GMT 39.316086 -7.862449 35,000 260 456 0
2019-09-21 12:52:37 GMT 39.317650 -7.851990 35,000 260 456 -64
2019-09-21 12:52:33 GMT 39.318604 -7.845850 35,000 260 457 -64
2019-09-21 12:52:29 GMT 39.321030 -7.829849 35,000 259 458 -64
2019-09-21 12:52:26 GMT 39.321651 -7.825806 35,000 259 457 -64
2019-09-21 12:52:23 GMT 39.322769 -7.818298 35,000 259 458 -64
2019-09-21 12:52:19 GMT 39.325050 -7.803284 35,000 259 458 -64
2019-09-21 12:52:16 GMT 39.325470 -7.800353 35,000 260 458 0
2019-09-21 12:52:12 GMT 39.327164 -7.789128 35,000 260 458 0
2019-09-21 12:52:09 GMT 39.328857 -7.777843 35,000 260 458 0
2019-09-21 12:52:02 GMT 39.331284 -7.761781 35,000 260 458 64
2019-09-21 12:51:56 GMT 39.333801 -7.745182 34,975 260 458 0
2019-09-21 12:51:52 GMT 39.335312 -7.734972 34,975 260 458 0
2019-09-21 12:51:47 GMT 39.337711 -7.719177 34,975 260 458 0
2019-09-21 12:51:39 GMT 39.340645 -7.699341 35,000 260 458 -64
2019-09-21 12:51:36 GMT 39.342415 -7.687561 35,000 260 458 -64
2019-09-21 12:51:30 GMT 39.345154 -7.669054 35,000 260 458 -64
2019-09-21 12:51:25 GMT 39.346207 -7.662128 34,975 260 458 -64
2019-09-21 12:51:22 GMT 39.347675 -7.652161 34,975 260 458 -64
2019-09-21 12:51:18 GMT 39.348930 -7.643616 35,000 260 458 -64
2019-09-21 12:51:15 GMT 39.350189 -7.635010 35,000 260 458 -64
2019-09-21 12:51:09 GMT 39.352295 -7.620810 35,000 260 458 -64
2019-09-21 12:51:04 GMT 39.354355 -7.606898 35,000 260 456 -64
2019-09-21 12:51:00 GMT 39.356140 -7.595135 34,975 260 456 -64
2019-09-21 12:50:55 GMT 39.358379 -7.579895 35,000 260 456 0
2019-09-21 12:50:49 GMT 39.360489 -7.565699 35,000 260 456 0
2019-09-21 12:50:45 GMT 39.362106 -7.554749 35,000 260 456 0
2019-09-21 12:50:42 GMT 39.363327 -7.546413 35,000 260 456 0
2019-09-21 12:50:39 GMT 39.366806 -7.522888 35,000 260 456 0
2019-09-21 12:50:34 GMT 39.366806 -7.522888 35,000 260 455 0
2019-09-21 12:50:26 GMT 39.369415 -7.505005 35,000 260 455 0
2019-09-21 12:50:23 GMT 39.370834 -7.495661 35,000 260 455 0
2019-09-21 12:50:18 GMT 39.372711 -7.482824 35,000 260 455 0
2019-09-21 12:50:12 GMT 39.375000 -7.467359 34,975 260 455 -64
2019-09-21 12:50:08 GMT 39.379189 -7.438782 34,975 260 455 0
2019-09-21 12:50:01 GMT 39.379189 -7.438782 34,975 260 455 64
2019-09-21 12:49:56 GMT 39.381050 -7.425903 34,975 260 456 0
2019-09-21 12:49:51 GMT 39.383377 -7.410159 34,975 260 456 -64
2019-09-21 12:49:46 GMT 39.385147 -7.398071 34,975 260 456 -64
2019-09-21 12:49:43 GMT 39.386444 -7.389261 34,975 260 457 -64
2019-09-21 12:49:39 GMT 39.388222 -7.377197 34,975 260 457 -64
2019-09-21 12:49:36 GMT 39.389191 -7.370513 34,975 260 457 -64
2019-09-21 12:49:33 GMT 39.390503 -7.361633 34,975 260 457 -64
2019-09-21 12:49:29 GMT 39.391758 -7.353027 35,000 260 457 -64
2019-09-21 12:49:26 GMT 39.393082 -7.343644 34,975 260 457 -64
2019-09-21 12:49:22 GMT 39.394730 -7.332359 34,975 260 455 0
2019-09-21 12:49:19 GMT 39.395920 -7.324358 34,975 260 457 -64
2019-09-21 12:49:16 GMT 39.397018 -7.316528 35,000 260 457 -64
2019-09-21 12:49:12 GMT 39.398529 -7.306087 35,000 260 457 -64
2019-09-21 12:49:09 GMT 39.399811 -7.297241 35,000 260 457 -64
2019-09-21 12:49:03 GMT 39.401825 -7.283577 35,000 260 456 -64
2019-09-21 12:49:00 GMT 39.403023 -7.275269 35,000 260 456 -64
2019-09-21 12:48:57 GMT 39.404480 -7.265366 35,000 260 456 0
2019-09-21 12:48:54 GMT 39.405445 -7.258667 35,000 260 456 -64
2019-09-21 12:48:51 GMT 39.406841 -7.249023 34,975 260 455 0
2019-09-21 12:48:47 GMT 39.408051 -7.240766 34,975 260 455 0
2019-09-21 12:48:44 GMT 39.409332 -7.232228 35,000 260 455 0
2019-09-21 12:48:38 GMT 39.412125 -7.212942 34,975 260 455 0
2019-09-21 12:48:34 GMT 39.413269 -7.204941 34,975 260 455 0
2019-09-21 12:48:30 GMT 39.414780 -7.194791 35,000 260 454 0
2019-09-21 12:48:27 GMT 39.416107 -7.185486 34,975 260 454 -64
2019-09-21 12:48:24 GMT 39.417595 -7.175354 35,000 260 454 -64
2019-09-21 12:48:19 GMT 39.418991 -7.165710 35,000 260 454 0
2019-09-21 12:48:16 GMT 39.420135 -7.158011 35,000 260 454 -64
2019-09-21 12:48:12 GMT 39.421783 -7.146545 35,000 260 454 0
2019-09-21 12:48:09 GMT 39.423065 -7.137710 35,000 260 454 -64
2019-09-21 12:48:05 GMT 39.424343 -7.128967 34,975 260 454 -64
2019-09-21 12:48:02 GMT 39.426113 -7.116699 34,975 260 454 -64
2019-09-21 12:47:59 GMT 39.427002 -7.110543 34,975 260 454 -64
2019-09-21 12:47:55 GMT 39.428375 -7.100989 35,000 260 454 -64
2019-09-21 12:47:51 GMT 39.430344 -7.087615 35,000 260 454 64
2019-09-21 12:47:48 GMT 39.431259 -7.081226 34,975 260 454 64
2019-09-21 12:47:45 GMT 39.432350 -7.073486 34,975 260 454 -64
2019-09-21 12:47:38 GMT 39.435013 -7.055074 35,000 260 455 -64
2019-09-21 12:47:35 GMT 39.436447 -7.045227 34,975 260 455 0
2019-09-21 12:47:27 GMT 39.439133 -7.026235 34,975 260 455 -64
2019-09-21 12:47:24 GMT 39.440506 -7.016621 35,000 260 455 -64
2019-09-21 12:47:16 GMT 39.443298 -6.997336 35,000 260 455 -64
2019-09-21 12:47:13 GMT 39.444641 -6.987976 35,000 260 455 0
2019-09-21 12:47:06 GMT 39.448746 -6.959361 35,000 260 455 0
2019-09-21 12:47:02 GMT 39.448746 -6.959361 35,000 260 455 64
2019-09-21 12:46:55 GMT 39.451309 -6.941150 35,000 260 455 -64
2019-09-21 12:46:51 GMT 39.452881 -6.930176 34,975 260 455 -64
2019-09-21 12:46:44 GMT 39.455490 -6.912048 35,000 260 455 0
2019-09-21 12:46:41 GMT 39.456802 -6.902698 34,975 260 455 -64
2019-09-21 12:46:35 GMT 39.459183 -6.886099 34,975 260 455 -64
2019-09-21 12:46:30 GMT 39.460785 -6.874874 35,000 260 455 0
2019-09-21 12:46:27 GMT 39.461864 -6.867126 35,000 260 454 -64
2019-09-21 12:46:24 GMT 39.463211 -6.857797 35,000 260 454 -64
2019-09-21 12:46:21 GMT 39.464722 -6.847110 34,975 260 454 -64
2019-09-21 12:46:17 GMT 39.466003 -6.838034 35,000 260 454 -64
2019-09-21 12:46:13 GMT 39.467545 -6.827087 35,000 260 454 -64
2019-09-21 12:46:08 GMT 39.469162 -6.815643 35,000 260 453 -64
2019-09-21 12:46:03 GMT 39.471176 -6.801575 34,975 260 452 0
2019-09-21 12:46:00 GMT 39.472549 -6.791760 35,000 260 451 -64
2019-09-21 12:45:54 GMT 39.474564 -6.777490 34,975 260 449 -64
2019-09-21 12:45:50 GMT 39.477276 -6.758179 34,975 260 449 -64
2019-09-21 12:45:43 GMT 39.478592 -6.749009 34,975 260 448 0
2019-09-21 12:45:40 GMT 39.479782 -6.740590 35,000 260 446 64
2019-09-21 12:45:37 GMT 39.480652 -6.734261 34,975 260 447 0
2019-09-21 12:45:33 GMT 39.482349 -6.722473 35,000 260 445 0
2019-09-21 12:45:28 GMT 39.484497 -6.707034 34,975 260 444 -64
2019-09-21 12:45:23 GMT 39.485916 -6.697122 34,975 260 443 64
2019-09-21 12:45:20 GMT 39.487144 -6.688538 34,975 260 443 -64
2019-09-21 12:45:17 GMT 39.488525 -6.678911 34,975 260 442 0
2019-09-21 12:45:12 GMT 39.490078 -6.667725 34,975 260 441 0
2019-09-21 12:45:09 GMT 39.491318 -6.659148 34,975 260 441 0
2019-09-21 12:45:06 GMT 39.492451 -6.651123 34,975 260 440 0
2019-09-21 12:45:02 GMT 39.493710 -6.642334 35,000 260 440 0
2019-09-21 12:44:58 GMT 39.495575 -6.629115 35,000 260 440 -64
2019-09-21 12:44:49 GMT 39.498550 -6.607978 35,000 260 439 0
2019-09-21 12:44:45 GMT 39.500271 -6.595825 34,975 260 438 -64
2019-09-21 12:44:41 GMT 39.501343 -6.588074 34,975 260 438 -64
2019-09-21 12:44:36 GMT 39.503311 -6.573884 35,000 260 438 0
2019-09-21 12:44:33 GMT 39.504230 -6.567444 34,975 260 438 0
2019-09-21 12:44:30 GMT 39.505394 -6.559204 35,000 261 438 -64
2019-09-21 12:44:26 GMT 39.507069 -6.546814 35,000 261 438 -64
2019-09-21 12:44:23 GMT 39.507999 -6.540161 34,975 261 438 -64
2019-09-21 12:44:17 GMT 39.509815 -6.526733 35,000 261 438 64
2019-09-21 12:44:14 GMT 39.511276 -6.516146 35,000 260 438 -64
2019-09-21 12:44:10 GMT 39.512558 -6.507429 35,000 260 437 0
2019-09-21 12:44:07 GMT 39.513474 -6.501279 34,975 259 437 -64
2019-09-21 12:44:02 GMT 39.515587 -6.487671 35,000 258 437 -64
2019-09-21 12:43:59 GMT 39.516815 -6.480262 34,975 258 438 -64
2019-09-21 12:43:54 GMT 39.519241 -6.466469 34,975 257 437 -64
2019-09-21 12:43:49 GMT 39.521408 -6.454529 34,975 257 437 0
2019-09-21 12:43:46 GMT 39.522812 -6.447183 34,975 256 437 0
2019-09-21 12:43:43 GMT 39.524387 -6.439331 34,975 256 438 0
2019-09-21 12:43:39 GMT 39.526703 -6.427957 34,975 255 436 -64
2019-09-21 12:43:36 GMT 39.528015 -6.421631 35,000 255 436 0
2019-09-21 12:43:33 GMT 39.529953 -6.412851 34,975 254 437 -64
2019-09-21 12:43:30 GMT 39.531281 -6.406821 34,975 254 437 -64
2019-09-21 12:43:27 GMT 39.532951 -6.399536 35,000 254 436 -64
2019-09-21 12:43:24 GMT 39.535046 -6.390564 34,975 254 436 -64
2019-09-21 12:43:20 GMT 39.537094 -6.381803 35,000 254 436 -64
2019-09-21 12:43:17 GMT 39.538818 -6.374573 35,000 253 435 576
2019-09-21 12:43:14 GMT 39.541515 -6.363098 35,000 254 435 -64
2019-09-21 12:43:11 GMT 39.542915 -6.357117 35,000 254 435 -64
2019-09-21 12:43:07 GMT 39.544777 -6.349121 35,000 253 436 64
2019-09-21 12:43:04 GMT 39.546524 -6.341918 35,000 253 436 64
2019-09-21 12:43:00 GMT 39.549522 -6.329224 35,000 253 436 64
2019-09-21 12:42:57 GMT 39.551010 -6.322990 35,000 253 436 192
2019-09-21 12:42:50 GMT 39.555176 -6.305555 34,925 253 435 704
2019-09-21 12:42:47 GMT 39.556961 -6.298092 34,925 253 435 896
2019-09-21 12:42:42 GMT 39.559860 -6.285889 34,850 253 434 768
2019-09-21 12:42:39 GMT 39.561676 -6.278209 34,800 253 434 832
2019-09-21 12:42:35 GMT 39.564003 -6.268555 34,775 253 434 896
2019-09-21 12:42:31 GMT 39.566284 -6.259094 34,725 253 433 960
2019-09-21 12:42:28 GMT 39.568680 -6.248892 34,650 254 434 1024
2019-09-21 12:42:23 GMT 39.573029 -6.230502 34,525 254 434 1088
2019-09-21 12:42:18 GMT 39.574150 -6.225830 34,500 254 434 1088
2019-09-21 12:42:14 GMT 39.576279 -6.216590 34,425 254 435 1024
2019-09-21 12:42:07 GMT 39.580032 -6.200648 34,200 254 435 1216
2019-09-21 12:42:04 GMT 39.582203 -6.191467 34,250 254 435 1152
2019-09-21 12:41:56 GMT 39.587219 -6.170256 34,050 254 436 1280
2019-09-21 12:41:45 GMT 39.593376 -6.143982 33,850 254 437 1216
2019-09-21 12:41:40 GMT 39.597847 -6.124939 33,700 254 438 1088
2019-09-21 12:41:35 GMT 39.599762 -6.116638 33,650 254 438 1152
2019-09-21 12:41:31 GMT 39.601547 -6.109115 33,600 254 438 1152
2019-09-21 12:41:26 GMT 39.604477 -6.096576 33,500 254 439 1152
2019-09-21 12:41:23 GMT 39.606087 -6.089783 33,450 254 439 1088
2019-09-21 12:41:19 GMT 39.608871 -6.077947 33,350 254 439 1088
2019-09-21 12:41:15 GMT 39.610832 -6.069641 33,300 254 439 1152
2019-09-21 12:41:12 GMT 39.612698 -6.061646 33,250 254 438 1216
2019-09-21 12:41:08 GMT 39.615143 -6.051317 33,175 254 439 1152
2019-09-21 12:41:04 GMT 39.618073 -6.038719 33,075 254 439 1024
2019-09-21 12:40:55 GMT 39.622658 -6.018799 32,900 254 439 1024
2019-09-21 12:40:52 GMT 39.624527 -6.011014 32,875 254 440 1024
2019-09-21 12:40:44 GMT 39.629410 -5.990112 32,725 254 440 1088
2019-09-21 12:40:41 GMT 39.630711 -5.984558 32,700 254 440 1088
2019-09-21 12:40:33 GMT 39.638947 -5.949515 32,500 254 440 1024
2019-09-21 12:40:23 GMT 39.641930 -5.936646 32,375 254 440 1280
2019-09-21 12:40:20 GMT 39.643158 -5.931304 32,325 254 440 1280
2019-09-21 12:40:14 GMT 39.647003 -5.914917 32,175 254 441 1408
2019-09-21 12:40:10 GMT 39.649006 -5.906311 32,100 254 442 1344
2019-09-21 12:40:02 GMT 39.654175 -5.884521 31,875 254 442 1280
2019-09-21 12:39:59 GMT 39.655746 -5.877626 31,850 254 442 1280
2019-09-21 12:39:49 GMT 39.664135 -5.841797 31,700 254 443 1216
2019-09-21 12:39:41 GMT 39.667068 -5.829041 31,525 254 443 896
2019-09-21 12:39:38 GMT 39.668045 -5.824951 31,525 254 443 960
2019-09-21 12:39:32 GMT 39.672050 -5.807678 31,400 254 443 1088
2019-09-21 12:39:29 GMT 39.674145 -5.798523 31,325 254 443 1216
2019-09-21 12:39:20 GMT 39.680328 -5.771763 31,100 254 444 1216
2019-09-21 12:39:11 GMT 39.686508 -5.745253 30,925 254 444 1280
2019-09-21 12:39:07 GMT 39.686508 -5.745253 30,925 254 444 1344
2019-09-21 12:38:59 GMT 39.691360 -5.724295 30,750 254 445 1088
2019-09-21 12:38:56 GMT 39.693466 -5.715100 30,675 254 445 1024
2019-09-21 12:38:48 GMT 39.697495 -5.697665 30,575 254 445 1024
2019-09-21 12:38:45 GMT 39.699562 -5.688782 30,475 254 444 1024
2019-09-21 12:38:38 GMT 39.704498 -5.667572 30,400 254 444 1088
2019-09-21 12:38:35 GMT 39.705551 -5.662974 30,350 254 444 896
2019-09-21 12:38:28 GMT 39.709244 -5.646912 30,250 254 443 1024
2019-09-21 12:38:25 GMT 39.711712 -5.636169 30,175 254 443 1088
2019-09-21 12:38:16 GMT 39.716766 -5.614014 30,025 254 443 896
2019-09-21 12:38:10 GMT 39.721954 -5.591370 30,000 254 443 832
2019-09-21 12:38:05 GMT 39.723026 -5.586853 29,900 254 441 768
2019-09-21 12:38:02 GMT 39.724823 -5.578965 29,850 254 441 832
2019-09-21 12:37:55 GMT 39.729076 -5.560486 29,725 254 440 1152
2019-09-21 12:37:51 GMT 39.731312 -5.550903 29,675 254 440 1216
2019-09-21 12:37:45 GMT 39.735306 -5.533407 29,550 254 440 1280
2019-09-21 12:37:41 GMT 39.736992 -5.526062 29,475 254 440 1344
2019-09-21 12:37:34 GMT 39.741180 -5.507813 29,325 254 441 1472
2019-09-21 12:37:31 GMT 39.742809 -5.500732 29,250 254 441 1536
2019-09-21 12:37:24 GMT 39.746532 -5.484497 29,025 254 442 1728
2019-09-21 12:37:21 GMT 39.749092 -5.473267 28,875 254 444 1984
2019-09-21 12:37:16 GMT 39.751656 -5.462036 28,775 254 448 1088
2019-09-21 12:37:13 GMT 39.752956 -5.456421 28,775 254 448 1088
2019-09-21 12:37:10 GMT 39.755081 -5.446950 28,575 254 447 1920
2019-09-21 12:37:07 GMT 39.756916 -5.438965 28,450 254 448 1152
2019-09-21 12:37:03 GMT 39.759010 -5.429688 28,450 254 448 1088
2019-09-21 12:36:59 GMT 39.761444 -5.419066 28,350 254 448 896
2019-09-21 12:36:56 GMT 39.763184 -5.411364 28,325 254 447 896
2019-09-21 12:36:53 GMT 39.764874 -5.403870 28,300 254 447 896
2019-09-21 12:36:48 GMT 39.768219 -5.389212 28,200 254 447 1024
2019-09-21 12:36:45 GMT 39.769867 -5.382047 28,150 254 446 1024
2019-09-21 12:36:38 GMT 39.773998 -5.363831 28,050 254 446 1024
2019-09-21 12:36:35 GMT 39.776001 -5.355103 27,975 254 446 1024
2019-09-21 12:36:32 GMT 39.777466 -5.348670 27,950 254 445 1024
2019-09-21 12:36:25 GMT 39.781174 -5.332250 27,850 254 445 1024
2019-09-21 12:36:22 GMT 39.782890 -5.324829 27,800 254 444 1024
2019-09-21 12:36:17 GMT 39.786476 -5.308960 27,700 254 443 1024
2019-09-21 12:36:14 GMT 39.787582 -5.304128 27,650 254 443 1024
2019-09-21 12:36:11 GMT 39.789322 -5.296485 27,600 254 443 1024
2019-09-21 12:36:04 GMT 39.794083 -5.275527 27,450 254 442 1024
2019-09-21 12:36:00 GMT 39.795971 -5.267090 27,425 254 442 1024
2019-09-21 12:35:51 GMT 39.801407 -5.242927 27,175 254 440 1152
2019-09-21 12:35:48 GMT 39.802689 -5.237314 27,225 254 441 1152
2019-09-21 12:35:43 GMT 39.806030 -5.222566 27,100 254 440 960
2019-09-21 12:35:40 GMT 39.807098 -5.217773 27,075 254 440 1024
2019-09-21 12:35:37 GMT 39.808868 -5.209908 27,050 254 440 960
2019-09-21 12:35:32 GMT 39.811661 -5.197510 26,975 254 439 896
2019-09-21 12:35:29 GMT 39.813847 -5.187866 26,925 254 439 960
2019-09-21 12:35:25 GMT 39.815964 -5.178501 26,850 254 438 1088
2019-09-21 12:35:19 GMT 39.819031 -5.164828 26,725 254 438 1152
2019-09-21 12:35:15 GMT 39.821640 -5.153245 26,675 254 437 1152
2019-09-21 12:35:11 GMT 39.824413 -5.140869 26,600 254 437 1024
2019-09-21 12:35:05 GMT 39.828003 -5.125003 26,500 254 437 960
2019-09-21 12:35:01 GMT 39.831585 -5.109131 26,375 254 436 1088
2019-09-21 12:34:57 GMT 39.831585 -5.109131 26,400 254 436 1152
2019-09-21 12:34:54 GMT 39.836380 -5.088013 25,625 254 436 960
2019-09-21 12:34:50 GMT 39.836380 -5.088013 26,225 254 436 1344
2019-09-21 12:34:47 GMT 39.837479 -5.083267 26,200 254 436 1408
2019-09-21 12:34:43 GMT 39.839722 -5.073176 26,100 254 437 1600
2019-09-21 12:34:38 GMT 39.842514 -5.060577 25,975 254 437 1600
2019-09-21 12:34:32 GMT 39.845875 -5.045715 25,825 254 437 1280
2019-09-21 12:34:27 GMT 39.848877 -5.032335 25,750 254 437 896
2019-09-21 12:34:22 GMT 39.851807 -5.019200 25,675 254 437 960
2019-09-21 12:34:18 GMT 39.853958 -5.009646 25,625 254 436 960
2019-09-21 12:34:15 GMT 39.855789 -5.001586 25,575 254 436 960
2019-09-21 12:34:12 GMT 39.857483 -4.994062 25,475 254 434 896
2019-09-21 12:34:07 GMT 39.860355 -4.981262 25,450 254 435 960
2019-09-21 12:34:04 GMT 39.861610 -4.975708 25,400 254 435 960
2019-09-21 12:34:01 GMT 39.863613 -4.966675 25,300 254 434 896
2019-09-21 12:33:56 GMT 39.866364 -4.954416 25,300 254 434 896
2019-09-21 12:33:51 GMT 39.869659 -4.939907 25,175 254 433 832
2019-09-21 12:33:47 GMT 39.871216 -4.932861 25,150 254 432 832
2019-09-21 12:33:44 GMT 39.873230 -4.923905 25,100 254 432 896
2019-09-21 12:33:39 GMT 39.876114 -4.910889 25,025 255 432 1024
2019-09-21 12:33:35 GMT 39.877853 -4.902888 24,975 254 431 1088
2019-09-21 12:33:32 GMT 39.879486 -4.895691 24,925 254 431 1088
2019-09-21 12:33:27 GMT 39.882141 -4.883728 24,850 254 432 1088
2019-09-21 12:33:24 GMT 39.883770 -4.876221 24,800 254 432 1024
2019-09-21 12:33:19 GMT 39.887680 -4.858826 24,675 254 431 960
2019-09-21 12:33:15 GMT 39.889297 -4.851598 24,650 254 430 960
2019-09-21 12:33:08 GMT 39.893051 -4.834701 24,525 254 429 960
2019-09-21 12:33:04 GMT 39.895340 -4.824312 24,425 254 429 1024
2019-09-21 12:32:57 GMT 39.898773 -4.808907 24,350 254 428 1152
2019-09-21 12:32:53 GMT 39.900993 -4.798767 24,300 255 428 1216
2019-09-21 12:32:48 GMT 39.904533 -4.782898 24,175 255 428 1088
2019-09-21 12:32:43 GMT 39.906418 -4.774216 24,125 255 428 896
2019-09-21 12:32:37 GMT 39.910072 -4.757629 24,025 255 427 896
2019-09-21 12:32:33 GMT 39.912323 -4.747527 23,950 255 427 1024
2019-09-21 12:32:27 GMT 39.915894 -4.731226 23,825 255 426 1280
2019-09-21 12:32:24 GMT 39.917175 -4.725315 23,775 255 426 1280
2019-09-21 12:32:21 GMT 39.918358 -4.720154 23,750 255 426 1280
2019-09-21 12:32:17 GMT 39.921150 -4.707336 23,650 254 426 1280
2019-09-21 12:32:13 GMT 39.923012 -4.698965 23,575 254 426 1216
2019-09-21 12:32:07 GMT 39.926331 -4.683899 23,450 255 425 1024
2019-09-21 12:32:03 GMT 39.928555 -4.673809 23,375 255 425 960
2019-09-21 12:31:55 GMT 39.932831 -4.654419 23,275 255 424 960
2019-09-21 12:31:52 GMT 39.934418 -4.647279 23,225 255 424 960
2019-09-21 12:31:41 GMT 39.940384 -4.620117 23,050 255 422 1024
2019-09-21 12:31:36 GMT 39.943588 -4.605469 22,950 255 422 1152
2019-09-21 12:31:30 GMT 39.946060 -4.594299 22,875 255 421 1152
2019-09-21 12:31:24 GMT 39.949642 -4.577928 22,775 255 420 896
2019-09-21 12:31:19 GMT 39.952202 -4.566255 22,675 255 420 896
2019-09-21 12:31:15 GMT 39.954437 -4.556080 22,625 255 419 896
2019-09-21 12:31:07 GMT 39.958328 -4.538391 22,525 255 418 960
2019-09-21 12:30:59 GMT 39.963001 -4.516879 22,375 255 416 1088
2019-09-21 12:30:55 GMT 39.964645 -4.509399 22,325 255 416 1152
2019-09-21 12:30:52 GMT 39.966248 -4.502136 22,275 255 415 1152
2019-09-21 12:30:46 GMT 39.971283 -4.479065 22,100 255 414 960
2019-09-21 12:30:36 GMT 39.975174 -4.461304 21,975 255 413 960
2019-09-21 12:30:32 GMT 39.977013 -4.452959 21,925 255 413 1088
2019-09-21 12:30:26 GMT 39.980457 -4.437166 21,800 255 410 640
2019-09-21 12:30:23 GMT 39.981857 -4.430725 21,750 255 412 1472
2019-09-21 12:30:20 GMT 39.983067 -4.425181 21,700 255 412 1600
2019-09-21 12:30:16 GMT 39.985382 -4.414429 21,525 255 413 1600
2019-09-21 12:30:13 GMT 39.986694 -4.408451 21,500 255 413 1472
2019-09-21 12:30:10 GMT 39.988495 -4.400085 21,425 255 413 1280
2019-09-21 12:30:03 GMT 39.992191 -4.383046 21,275 255 413 1280
2019-09-21 12:29:58 GMT 39.994377 -4.372996 21,200 255 413 960
2019-09-21 12:29:55 GMT 39.996277 -4.364136 21,150 255 412 768
2019-09-21 12:29:52 GMT 39.997589 -4.358139 21,125 255 411 640
2019-09-21 12:29:48 GMT 39.999451 -4.349587 21,075 255 409 576
2019-09-21 12:29:43 GMT 40.002731 -4.334717 21,025 255 407 576
2019-09-21 12:29:37 GMT 40.005459 -4.322246 20,975 255 405 576
2019-09-21 12:29:32 GMT 40.008087 -4.310303 20,925 254 402 768
2019-09-21 12:29:27 GMT 40.010487 -4.299337 20,875 255 401 704
2019-09-21 12:29:22 GMT 40.013397 -4.286133 20,825 255 400 704
2019-09-21 12:29:16 GMT 40.016190 -4.273254 20,750 255 395 704
2019-09-21 12:29:11 GMT 40.018723 -4.261509 20,725 255 395 704
2019-09-21 12:29:05 GMT 40.021378 -4.249212 20,650 255 392 640
2019-09-21 12:29:01 GMT 40.024124 -4.236478 20,600 255 391 704
2019-09-21 12:28:53 GMT 40.027588 -4.220459 20,500 255 387 640
2019-09-21 12:28:50 GMT 40.029236 -4.212830 20,475 255 385 640
2019-09-21 12:28:42 GMT 40.032642 -4.196965 20,400 255 381 576
2019-09-21 12:28:38 GMT 40.034412 -4.188600 20,375 255 380 576
2019-09-21 12:28:34 GMT 40.036560 -4.178650 20,325 255 378 576
2019-09-21 12:28:30 GMT 40.038254 -4.170776 20,325 255 377 576
2019-09-21 12:28:27 GMT 40.039673 -4.164185 19,975 255 372 640
2019-09-21 12:28:20 GMT 40.042976 -4.148837 20,200 255 371 640
2019-09-21 12:28:16 GMT 40.044891 -4.140015 20,175 255 369 704
2019-09-21 12:28:10 GMT 40.047726 -4.126989 20,075 255 367 1216
2019-09-21 12:28:00 GMT 40.052444 -4.105103 19,825 255 365 1664
2019-09-21 12:27:50 GMT 40.056931 -4.084290 19,575 255 365 1728
2019-09-21 12:27:40 GMT 40.061829 -4.061340 19,300 255 365 1536
2019-09-21 12:27:28 GMT 40.066765 -4.038287 19,075 255 364 1344
2019-09-21 12:27:18 GMT 40.071377 -4.017251 18,800 255 361 1536
2019-09-21 12:27:07 GMT 40.076916 -3.991345 18,500 255 359 1792
2019-09-21 12:26:58 GMT 40.080414 -3.974854 18,275 255 358 1856
2019-09-21 12:26:54 GMT 40.082108 -3.966919 18,150 255 359 1792
2019-09-21 12:26:48 GMT 40.084900 -3.953979 17,975 255 358 1728
2019-09-21 12:26:42 GMT 40.087574 -3.941720 17,825 255 357 1664
2019-09-21 12:26:37 GMT 40.089718 -3.931795 17,700 255 356 1600
2019-09-21 12:26:31 GMT 40.092602 -3.918124 17,525 255 355 1536
2019-09-21 12:26:26 GMT 40.094463 -3.909385 17,450 255 355 1600
2019-09-21 12:26:22 GMT 40.096390 -3.900146 17,325 255 354 1600
2019-09-21 12:26:19 GMT 40.097580 -3.894348 17,200 255 353 1600
2019-09-21 12:26:16 GMT 40.098816 -3.888611 17,200 255 353 1600
2019-09-21 12:26:12 GMT 40.100983 -3.878111 17,050 255 352 1344
2019-09-21 12:26:09 GMT 40.102287 -3.871994 17,000 255 350 1152
2019-09-21 12:26:05 GMT 40.103622 -3.865662 16,925 255 350 1152
2019-09-21 12:26:00 GMT 40.105728 -3.855764 16,825 255 347 1408
2019-09-21 12:25:56 GMT 40.107685 -3.846463 16,725 255 346 1536
2019-09-21 12:25:49 GMT 40.110352 -3.833801 16,575 255 345 1600
2019-09-21 12:25:45 GMT 40.112202 -3.825177 16,450 255 344 1664
2019-09-21 12:25:38 GMT 40.114883 -3.812195 16,275 255 343 1792
2019-09-21 12:25:34 GMT 40.116714 -3.803406 16,125 255 342 2048
2019-09-21 12:25:28 GMT 40.119141 -3.791870 15,950 255 342 2176
2019-09-21 12:25:23 GMT 40.121384 -3.781128 15,750 255 341 2240
2019-09-21 12:25:16 GMT 40.124496 -3.766418 15,475 255 342 2368
2019-09-21 12:25:11 GMT 40.126213 -3.758261 15,325 255 341 2304
2019-09-21 12:25:07 GMT 40.128067 -3.749329 15,150 255 342 2176
2019-09-21 12:25:03 GMT 40.129715 -3.741333 15,025 255 342 2112
2019-09-21 12:25:00 GMT 40.130917 -3.735539 14,925 255 342 2176
2019-09-21 12:24:52 GMT 40.134174 -3.719996 14,625 255 342 2560
2019-09-21 12:24:48 GMT 40.136082 -3.711257 14,450 255 343 2432
2019-09-21 12:24:45 GMT 40.137405 -3.705078 14,350 255 343 2304
2019-09-21 12:24:42 GMT 40.138687 -3.699036 14,225 255 343 2304
2019-09-21 12:24:38 GMT 40.141663 -3.685059 13,975 255 343 2048
2019-09-21 12:24:31 GMT 40.143066 -3.678485 13,875 255 343 1984
2019-09-21 12:24:24 GMT 40.146286 -3.663513 13,675 255 342 2112
2019-09-21 12:24:21 GMT 40.147659 -3.657166 13,550 255 340 1792
2019-09-21 12:24:15 GMT 40.150558 -3.643903 13,350 255 339 1664
2019-09-21 12:24:11 GMT 40.152328 -3.635663 13,225 255 337 1728
2019-09-21 12:24:03 GMT 40.155121 -3.622070 13,025 256 336 2112
2019-09-21 12:24:00 GMT 40.156403 -3.615784 12,925 255 335 2240
2019-09-21 12:23:52 GMT 40.159561 -3.600586 12,625 255 334 2624
2019-09-21 12:23:49 GMT 40.160843 -3.594727 12,500 255 334 2624
2019-09-21 12:23:44 GMT 40.163502 -3.582542 12,275 255 333 1728
2019-09-21 12:23:39 GMT 40.165176 -3.574801 12,175 255 332 1344
2019-09-21 12:23:32 GMT 40.167690 -3.562816 12,025 256 329 1600
2019-09-21 12:23:29 GMT 40.169086 -3.555950 11,925 256 326 2112
2019-09-21 12:23:22 GMT 40.171783 -3.542786 11,700 255 325 1728
2019-09-21 12:23:18 GMT 40.173340 -3.535217 11,600 255 324 1856
2019-09-21 12:23:12 GMT 40.175629 -3.523926 11,425 256 321 1920
2019-09-21 12:23:06 GMT 40.177826 -3.513428 11,250 255 320 1792
2019-09-21 12:23:02 GMT 40.179657 -3.504456 11,125 255 318 1536
2019-09-21 12:22:55 GMT 40.182404 -3.491150 10,975 255 314 1216
2019-09-21 12:22:51 GMT 40.183750 -3.484726 10,900 255 312 1088
2019-09-21 12:22:44 GMT 40.186268 -3.472054 10,775 257 307 960
2019-09-21 12:22:41 GMT 40.187256 -3.466797 10,775 257 306 960
2019-09-21 12:22:34 GMT 40.189774 -3.454468 10,600 252 298 1152
2019-09-21 12:22:31 GMT 40.191010 -3.449707 10,550 249 297 1024
2019-09-21 12:22:25 GMT 40.194736 -3.439595 10,450 240 292 1024
2019-09-21 12:22:20 GMT 40.198563 -3.432190 10,375 231 287 704
2019-09-21 12:22:15 GMT 40.202774 -3.425903 10,325 225 282 768
2019-09-21 12:22:12 GMT 40.205612 -3.422363 10,300 221 280 768
2019-09-21 12:22:08 GMT 40.209229 -3.418518 10,250 216 277 768
2019-09-21 12:22:04 GMT 40.213531 -3.414856 10,175 209 274 1920
2019-09-21 12:22:00 GMT 40.218430 -3.411438 10,100 207 273 2240
2019-09-21 12:21:57 GMT 40.222092 -3.409180 9,900 205 273 2176
2019-09-21 12:21:51 GMT 40.228210 -3.405637 9,725 205 272 2048
2019-09-21 12:21:46 GMT 40.234867 -3.401767 9,550 205 270 2048
2019-09-21 12:21:43 GMT 40.237747 -3.400085 9,450 204 269 2176
2019-09-21 12:21:39 GMT 40.242783 -3.397156 9,300 204 269 2240
2019-09-21 12:21:33 GMT 40.250366 -3.392715 9,075 205 267 2048
2019-09-21 12:21:29 GMT 40.253174 -3.391052 9,000 206 267 1984
2019-09-21 12:21:22 GMT 40.261688 -3.385986 8,725 201 264 2112
2019-09-21 12:21:18 GMT 40.266357 -3.383911 8,600 196 264 2176
2019-09-21 12:21:12 GMT 40.274204 -3.381979 8,350 183 267 2240
2019-09-21 12:21:09 GMT 40.277649 -3.381729 8,250 176 268 2304
2019-09-21 12:20:59 GMT 40.289886 -3.383728 7,900 159 272 2048
2019-09-21 12:20:48 GMT 40.302322 -3.391467 7,550 143 276 2240
2019-09-21 12:20:36 GMT 40.314697 -3.403687 7,100 142 275 2304
2019-09-21 12:20:28 GMT 40.322014 -3.411068 6,600 142 272 2368
2019-09-21 12:20:25 GMT 40.325500 -3.414612 6,250 142 271 2304
2019-09-21 12:20:18 GMT 40.332870 -3.422058 6,425 142 270 2112
2019-09-21 12:20:12 GMT 40.338181 -3.427490 6,250 142 268 1856
2019-09-21 12:20:07 GMT 40.343567 -3.432915 6,100 142 264 1472
2019-09-21 12:19:57 GMT 40.352463 -3.441895 5,900 142 256 1024
2019-09-21 12:19:47 GMT 40.362213 -3.451721 5,725 142 243 960
2019-09-21 12:19:42 GMT 40.366608 -3.456116 5,650 142 234 960
2019-09-21 12:19:36 GMT 40.371460 -3.460999 5,575 142 231 960
2019-09-21 12:19:31 GMT 40.375732 -3.465313 5,500 142 225 768
2019-09-21 12:19:25 GMT 40.380386 -3.470032 5,450 142 218 768
2019-09-21 12:19:18 GMT 40.386703 -3.476379 5,350 142 209 832
2019-09-21 12:19:14 GMT 40.389130 -3.478882 5,300 142 206 832
2019-09-21 12:19:10 GMT 40.392490 -3.482291 5,250 142 201 768
2019-09-21 12:19:03 GMT 40.397007 -3.486786 5,075 142 194 2112
2019-09-21 12:19:00 GMT 40.399151 -3.488971 5,000 142 194 2048
2019-09-21 12:18:56 GMT 40.402359 -3.492249 4,850 142 194 1920
2019-09-21 12:18:52 GMT 40.404690 -3.494589 4,750 142 193 1984
2019-09-21 12:18:49 GMT 40.407249 -3.497148 4,650 142 193 2048
2019-09-21 12:18:45 GMT 40.410088 -3.500082 4,500 142 193 2048
2019-09-21 12:18:42 GMT 40.412045 -3.502079 4,400 141 193 2112
2019-09-21 12:18:39 GMT 40.414467 -3.504514 4,300 142 192 2048
2019-09-21 12:18:36 GMT 40.417053 -3.507141 4,175 142 192 2048
2019-09-21 12:18:32 GMT 40.419258 -3.509383 4,075 141 192 2112
2019-09-21 12:18:29 GMT 40.421997 -3.512207 3,925 141 192 2112
2019-09-21 12:18:25 GMT 40.424240 -3.514465 3,825 142 191 1984
2019-09-21 12:18:21 GMT 40.426620 -3.516907 3,725 142 192 2176
2019-09-21 12:18:17 GMT 40.430107 -3.520307 3,550 142 191 2048
2019-09-21 12:18:14 GMT 40.431885 -3.522095 3,450 142 191 2112
2019-09-21 12:18:11 GMT 40.433926 -3.524114 3,350 142 191 2176
2019-09-21 12:18:08 GMT 40.436577 -3.526799 3,225 142 190 2112

Making use of Plane Finder data

You are free to use the raw flight data, aircraft information and images provided in this report for your own purposes provided the data is correctly attributed to Plane Finder. We ask that you please credit Plane Finder and link to planefinder.net in close proximity to the content.

Optionally one of the following logos (no smaller then 150x24px) can be used and must link to planefinder.net

Embedding the Plane Finder map

You are welcome to embed the Plane Finder playback map on your website to offer visitors a more interactive experience. We suggest using the following HTML code:

<iframe src="//planefinder.net/data/report/AV17-N786AV-7700-squawk-2019-09-21/map" width="800" height="600" seamless="seamless"></iframe>

Where our data comes from

Plane Finder has a global network of data feeds and antenna radars that receive data broadcast directly from aircraft. The primary technologies used are ADS-B and MLAT. We also show feeds from the FAA and a FLARM glider feed.

Click here to find out more about the Plane Finder network.

How we collect our data